<?xml version="1.0" encoding="UTF-8" standalone="no" ?>
<gpx xmlns="http://www.topografix.com/GPX/1/1" xmlns:xsi="http://www.w3.org/2001/XMLSchema-instance" xsi:schemaLocation="http://www.topografix.com/GPX/1/1 http://www.topografix.com/GPX/1/1/gpx.xsd" version="1.1" creator="VisuGPX - https://www.visugpx.com">
  <metadata>
    <name>tour france</name>
  </metadata>
  <trk>
    <name><![CDATA[SES_12]]></name>
    <extensions>
      <line xmlns="http://www.topografix.com/GPX/gpx_style/0/2">
        <color>8a0029</color>
        <width>4</width>
      </line>
    </extensions>
    <trkseg>
      <trkpt lat="43.26349" lon="-1.05696">
        <ele>130.089</ele>
        <time>2016-09-28T14:59:39Z</time>
      </trkpt>
      <trkpt lat="43.26248" lon="-1.05691">
        <ele>130.017</ele>
        <time>2016-09-28T15:00:19Z</time>
      </trkpt>
      <trkpt lat="43.26195" lon="-1.05644">
        <ele>129.508</ele>
        <time>2016-09-28T15:00:59Z</time>
      </trkpt>
      <trkpt lat="43.26143" lon="-1.05636">
        <ele>135.868</ele>
        <time>2016-09-28T15:01:39Z</time>
      </trkpt>
      <trkpt lat="43.26138" lon="-1.05839">
        <ele>154.275</ele>
        <time>2016-09-28T15:02:19Z</time>
      </trkpt>
      <trkpt lat="43.26096" lon="-1.05912">
        <ele>155.984</ele>
        <time>2016-09-28T15:02:59Z</time>
      </trkpt>
      <trkpt lat="43.26076" lon="-1.05985">
        <ele>158.943</ele>
        <time>2016-09-28T15:03:39Z</time>
      </trkpt>
      <trkpt lat="43.26032" lon="-1.06039">
        <ele>163.039</ele>
        <time>2016-09-28T15:04:19Z</time>
      </trkpt>
      <trkpt lat="43.25941" lon="-1.06357">
        <ele>172.79</ele>
        <time>2016-09-28T15:04:59Z</time>
      </trkpt>
      <trkpt lat="43.25935" lon="-1.06612">
        <ele>158.073</ele>
        <time>2016-09-28T15:05:39Z</time>
      </trkpt>
      <trkpt lat="43.25951" lon="-1.0665">
        <ele>156.512</ele>
        <time>2016-09-28T15:06:19Z</time>
      </trkpt>
      <trkpt lat="43.25926" lon="-1.067">
        <ele>149.693</ele>
        <time>2016-09-28T15:06:59Z</time>
      </trkpt>
      <trkpt lat="43.25893" lon="-1.06704">
        <ele>146.665</ele>
        <time>2016-09-28T15:07:39Z</time>
      </trkpt>
      <trkpt lat="43.25882" lon="-1.06751">
        <ele>142.221</ele>
        <time>2016-09-28T15:08:19Z</time>
      </trkpt>
      <trkpt lat="43.25685" lon="-1.06816">
        <ele>130.008</ele>
        <time>2016-09-28T15:08:59Z</time>
      </trkpt>
      <trkpt lat="43.25666" lon="-1.06848">
        <ele>130.055</ele>
        <time>2016-09-28T15:09:39Z</time>
      </trkpt>
      <trkpt lat="43.2562" lon="-1.0685">
        <ele>130.092</ele>
        <time>2016-09-28T15:10:19Z</time>
      </trkpt>
      <trkpt lat="43.25484" lon="-1.06903">
        <ele>133</ele>
        <time>2016-09-28T15:10:59Z</time>
      </trkpt>
      <trkpt lat="43.25509" lon="-1.06998">
        <ele>147.81</ele>
        <time>2016-09-28T15:11:39Z</time>
      </trkpt>
      <trkpt lat="43.25565" lon="-1.07163">
        <ele>156.226</ele>
        <time>2016-09-28T15:12:19Z</time>
      </trkpt>
      <trkpt lat="43.25554" lon="-1.07232">
        <ele>156.647</ele>
        <time>2016-09-28T15:12:59Z</time>
      </trkpt>
      <trkpt lat="43.25515" lon="-1.07264">
        <ele>150.75</ele>
        <time>2016-09-28T15:13:39Z</time>
      </trkpt>
      <trkpt lat="43.25491" lon="-1.07324">
        <ele>149.479</ele>
        <time>2016-09-28T15:14:19Z</time>
      </trkpt>
      <trkpt lat="43.25482" lon="-1.07425">
        <ele>152.348</ele>
        <time>2016-09-28T15:14:59Z</time>
      </trkpt>
      <trkpt lat="43.2539" lon="-1.07498">
        <ele>151.061</ele>
        <time>2016-09-28T15:15:39Z</time>
      </trkpt>
      <trkpt lat="43.2538" lon="-1.07524">
        <ele>151.617</ele>
        <time>2016-09-28T15:16:19Z</time>
      </trkpt>
      <trkpt lat="43.25318" lon="-1.0759">
        <ele>148.708</ele>
        <time>2016-09-28T15:16:59Z</time>
      </trkpt>
      <trkpt lat="43.25254" lon="-1.07644">
        <ele>141.22</ele>
        <time>2016-09-28T15:17:39Z</time>
      </trkpt>
      <trkpt lat="43.25107" lon="-1.07831">
        <ele>137.987</ele>
        <time>2016-09-28T15:18:19Z</time>
      </trkpt>
      <trkpt lat="43.25001" lon="-1.07861">
        <ele>145.986</ele>
        <time>2016-09-28T15:18:59Z</time>
      </trkpt>
      <trkpt lat="43.24933" lon="-1.0791">
        <ele>153.875</ele>
        <time>2016-09-28T15:19:39Z</time>
      </trkpt>
      <trkpt lat="43.2483" lon="-1.07929">
        <ele>162.151</ele>
        <time>2016-09-28T15:20:19Z</time>
      </trkpt>
      <trkpt lat="43.2471" lon="-1.08035">
        <ele>158.332</ele>
        <time>2016-09-28T15:20:59Z</time>
      </trkpt>
      <trkpt lat="43.24649" lon="-1.08159">
        <ele>156.525</ele>
        <time>2016-09-28T15:21:39Z</time>
      </trkpt>
      <trkpt lat="43.2464" lon="-1.08249">
        <ele>157.294</ele>
        <time>2016-09-28T15:22:19Z</time>
      </trkpt>
      <trkpt lat="43.24608" lon="-1.08352">
        <ele>148.632</ele>
        <time>2016-09-28T15:22:59Z</time>
      </trkpt>
      <trkpt lat="43.24597" lon="-1.08414">
        <ele>147.592</ele>
        <time>2016-09-28T15:23:39Z</time>
      </trkpt>
      <trkpt lat="43.24551" lon="-1.08499">
        <ele>145.3</ele>
        <time>2016-09-28T15:24:19Z</time>
      </trkpt>
      <trkpt lat="43.24441" lon="-1.08588">
        <ele>150.008</ele>
        <time>2016-09-28T15:24:59Z</time>
      </trkpt>
      <trkpt lat="43.24368" lon="-1.08698">
        <ele>145.249</ele>
        <time>2016-09-28T15:25:39Z</time>
      </trkpt>
      <trkpt lat="43.24274" lon="-1.08796">
        <ele>145.076</ele>
        <time>2016-09-28T15:26:19Z</time>
      </trkpt>
      <trkpt lat="43.2421" lon="-1.08835">
        <ele>146.125</ele>
        <time>2016-09-28T15:26:59Z</time>
      </trkpt>
      <trkpt lat="43.24127" lon="-1.08914">
        <ele>148.954</ele>
        <time>2016-09-28T15:27:39Z</time>
      </trkpt>
      <trkpt lat="43.24035" lon="-1.08953">
        <ele>150.89</ele>
        <time>2016-09-28T15:28:19Z</time>
      </trkpt>
      <trkpt lat="43.23971" lon="-1.08944">
        <ele>151.031</ele>
        <time>2016-09-28T15:28:59Z</time>
      </trkpt>
      <trkpt lat="43.23889" lon="-1.08974">
        <ele>152.124</ele>
        <time>2016-09-28T15:29:39Z</time>
      </trkpt>
      <trkpt lat="43.23786" lon="-1.08743">
        <ele>146.043</ele>
        <time>2016-09-28T15:30:19Z</time>
      </trkpt>
      <trkpt lat="43.23552" lon="-1.09185">
        <ele>152.496</ele>
        <time>2016-09-28T15:30:59Z</time>
      </trkpt>
      <trkpt lat="43.23582" lon="-1.09286">
        <ele>159.5</ele>
        <time>2016-09-28T15:31:39Z</time>
      </trkpt>
      <trkpt lat="43.23584" lon="-1.09298">
        <ele>160.5</ele>
      </trkpt>
      <trkpt lat="43.23469" lon="-1.09494">
        <ele>159.624</ele>
        <time>2016-09-28T15:32:19Z</time>
      </trkpt>
      <trkpt lat="43.23459" lon="-1.09554">
        <ele>163.408</ele>
        <time>2016-09-28T15:32:59Z</time>
      </trkpt>
      <trkpt lat="43.23442" lon="-1.0961">
        <ele>166.835</ele>
        <time>2016-09-28T15:33:39Z</time>
      </trkpt>
      <trkpt lat="43.23466" lon="-1.0989">
        <ele>179.5</ele>
      </trkpt>
      <trkpt lat="43.2346" lon="-1.09933">
        <ele>179.3</ele>
        <time>2016-09-28T15:34:19Z</time>
      </trkpt>
      <trkpt lat="43.23394" lon="-1.1003">
        <ele>177.791</ele>
        <time>2016-09-28T15:34:59Z</time>
      </trkpt>
      <trkpt lat="43.23316" lon="-1.10107">
        <ele>178.55</ele>
        <time>2016-09-28T15:35:39Z</time>
      </trkpt>
      <trkpt lat="43.23162" lon="-1.10187">
        <ele>173.156</ele>
        <time>2016-09-28T15:36:19Z</time>
      </trkpt>
      <trkpt lat="43.23117" lon="-1.10238">
        <ele>168.837</ele>
        <time>2016-09-28T15:36:59Z</time>
      </trkpt>
      <trkpt lat="43.231" lon="-1.1024">
        <ele>167.33</ele>
        <time>2016-09-28T15:37:39Z</time>
      </trkpt>
      <trkpt lat="43.2305" lon="-1.10391">
        <ele>159.779</ele>
        <time>2016-09-28T15:38:19Z</time>
      </trkpt>
      <trkpt lat="43.23024" lon="-1.10422">
        <ele>159.6</ele>
      </trkpt>
      <trkpt lat="43.23035" lon="-1.10454">
        <ele>158.2</ele>
      </trkpt>
      <trkpt lat="43.22998" lon="-1.10644">
        <ele>152.298</ele>
        <time>2016-09-28T15:38:59Z</time>
      </trkpt>
      <trkpt lat="43.22883" lon="-1.10856">
        <ele>165.815</ele>
        <time>2016-09-28T15:39:39Z</time>
      </trkpt>
      <trkpt lat="43.22862" lon="-1.10931">
        <ele>170.626</ele>
        <time>2016-09-28T15:40:19Z</time>
      </trkpt>
      <trkpt lat="43.22831" lon="-1.10938">
        <ele>169.208</ele>
        <time>2016-09-28T15:40:59Z</time>
      </trkpt>
      <trkpt lat="43.22737" lon="-1.11161">
        <ele>170.545</ele>
        <time>2016-09-28T15:41:39Z</time>
      </trkpt>
      <trkpt lat="43.22731" lon="-1.11285">
        <ele>173.812</ele>
        <time>2016-09-28T15:42:19Z</time>
      </trkpt>
      <trkpt lat="43.22703" lon="-1.11307">
        <ele>174.131</ele>
        <time>2016-09-28T15:42:59Z</time>
      </trkpt>
      <trkpt lat="43.22598" lon="-1.11493">
        <ele>183.33</ele>
        <time>2016-09-28T15:43:39Z</time>
      </trkpt>
      <trkpt lat="43.22579" lon="-1.11624">
        <ele>184.776</ele>
        <time>2016-09-28T15:44:19Z</time>
      </trkpt>
      <trkpt lat="43.22503" lon="-1.1168">
        <ele>177.687</ele>
        <time>2016-09-28T15:44:59Z</time>
      </trkpt>
      <trkpt lat="43.22488" lon="-1.11943">
        <ele>175.7</ele>
      </trkpt>
      <trkpt lat="43.22471" lon="-1.1197">
        <ele>173</ele>
        <time>2016-09-28T15:45:39Z</time>
      </trkpt>
      <trkpt lat="43.22407" lon="-1.11972">
        <ele>171.639</ele>
        <time>2016-09-28T15:46:19Z</time>
      </trkpt>
      <trkpt lat="43.22325" lon="-1.11929">
        <ele>172.1</ele>
        <time>2016-09-28T15:46:59Z</time>
      </trkpt>
      <trkpt lat="43.22282" lon="-1.11893">
        <ele>173.381</ele>
        <time>2016-09-28T15:47:39Z</time>
      </trkpt>
      <trkpt lat="43.22202" lon="-1.11867">
        <ele>174.719</ele>
        <time>2016-09-28T15:48:19Z</time>
      </trkpt>
      <trkpt lat="43.22176" lon="-1.11871">
        <ele>173.5</ele>
      </trkpt>
      <trkpt lat="43.22141" lon="-1.11895">
        <ele>171.908</ele>
        <time>2016-09-28T15:48:59Z</time>
      </trkpt>
      <trkpt lat="43.22121" lon="-1.11907">
        <ele>170.5</ele>
      </trkpt>
      <trkpt lat="43.22096" lon="-1.11945">
        <ele>172</ele>
      </trkpt>
      <trkpt lat="43.22033" lon="-1.12041">
        <ele>170</ele>
        <time>2016-09-28T15:49:39Z</time>
      </trkpt>
      <trkpt lat="43.21997" lon="-1.12082">
        <ele>168.8</ele>
      </trkpt>
      <trkpt lat="43.21938" lon="-1.12153">
        <ele>170.1</ele>
      </trkpt>
      <trkpt lat="43.2182" lon="-1.12278">
        <ele>178</ele>
        <time>2016-09-28T15:50:19Z</time>
      </trkpt>
      <trkpt lat="43.21846" lon="-1.12343">
        <ele>181.848</ele>
        <time>2016-09-28T15:50:59Z</time>
      </trkpt>
      <trkpt lat="43.21751" lon="-1.12371">
        <ele>188.977</ele>
        <time>2016-09-28T15:51:39Z</time>
      </trkpt>
      <trkpt lat="43.21658" lon="-1.12478">
        <ele>193.123</ele>
        <time>2016-09-28T15:52:19Z</time>
      </trkpt>
      <trkpt lat="43.2163" lon="-1.12541">
        <ele>197.644</ele>
        <time>2016-09-28T15:52:59Z</time>
      </trkpt>
      <trkpt lat="43.21561" lon="-1.12601">
        <ele>198.937</ele>
        <time>2016-09-28T15:53:39Z</time>
      </trkpt>
      <trkpt lat="43.21525" lon="-1.1268">
        <ele>204.056</ele>
        <time>2016-09-28T15:54:19Z</time>
      </trkpt>
      <trkpt lat="43.21519" lon="-1.12828">
        <ele>209.342</ele>
        <time>2016-09-28T15:54:59Z</time>
      </trkpt>
      <trkpt lat="43.21514" lon="-1.12842">
        <ele>209.6</ele>
      </trkpt>
      <trkpt lat="43.21474" lon="-1.12843">
        <ele>213.722</ele>
        <time>2016-09-28T15:55:39Z</time>
      </trkpt>
      <trkpt lat="43.21391" lon="-1.12985">
        <ele>220.514</ele>
        <time>2016-09-28T15:56:19Z</time>
      </trkpt>
      <trkpt lat="43.21376" lon="-1.13085">
        <ele>230</ele>
        <time>2016-09-28T15:56:59Z</time>
      </trkpt>
      <trkpt lat="43.21374" lon="-1.1316">
        <ele>232.9</ele>
      </trkpt>
      <trkpt lat="43.21365" lon="-1.13242">
        <ele>231.7</ele>
      </trkpt>
      <trkpt lat="43.21333" lon="-1.13386">
        <ele>229.77</ele>
        <time>2016-09-28T15:57:39Z</time>
      </trkpt>
      <trkpt lat="43.21208" lon="-1.13586">
        <ele>249.567</ele>
        <time>2016-09-28T15:58:19Z</time>
      </trkpt>
      <trkpt lat="43.21111" lon="-1.13676">
        <ele>264.726</ele>
        <time>2016-09-28T15:58:59Z</time>
      </trkpt>
      <trkpt lat="43.21037" lon="-1.13777">
        <ele>260.735</ele>
        <time>2016-09-28T15:59:39Z</time>
      </trkpt>
      <trkpt lat="43.20992" lon="-1.13772">
        <ele>260.151</ele>
        <time>2016-09-28T16:00:19Z</time>
      </trkpt>
      <trkpt lat="43.20834" lon="-1.13835">
        <ele>262.992</ele>
        <time>2016-09-28T16:00:59Z</time>
      </trkpt>
      <trkpt lat="43.20787" lon="-1.1388">
        <ele>262.465</ele>
        <time>2016-09-28T16:01:39Z</time>
      </trkpt>
      <trkpt lat="43.20698" lon="-1.13935">
        <ele>266.284</ele>
        <time>2016-09-28T16:02:19Z</time>
      </trkpt>
      <trkpt lat="43.20567" lon="-1.13953">
        <ele>263.882</ele>
        <time>2016-09-28T16:02:59Z</time>
      </trkpt>
      <trkpt lat="43.20439" lon="-1.13998">
        <ele>261.8</ele>
        <time>2016-09-28T16:03:39Z</time>
      </trkpt>
      <trkpt lat="43.20368" lon="-1.14094">
        <ele>250.217</ele>
        <time>2016-09-28T16:04:19Z</time>
      </trkpt>
      <trkpt lat="43.20337" lon="-1.14119">
        <ele>249</ele>
      </trkpt>
      <trkpt lat="43.20312" lon="-1.14158">
        <ele>246.5</ele>
        <time>2016-09-28T16:04:59Z</time>
      </trkpt>
      <trkpt lat="43.20314" lon="-1.14102">
        <ele>242.5</ele>
      </trkpt>
      <trkpt lat="43.20305" lon="-1.14081">
        <ele>237.984</ele>
        <time>2016-09-28T16:05:39Z</time>
      </trkpt>
      <trkpt lat="43.20287" lon="-1.14099">
        <ele>236</ele>
        <time>2016-09-28T16:06:19Z</time>
      </trkpt>
      <trkpt lat="43.20262" lon="-1.1415">
        <ele>231.65</ele>
        <time>2016-09-28T16:06:59Z</time>
      </trkpt>
      <trkpt lat="43.20189" lon="-1.14219">
        <ele>228.5</ele>
      </trkpt>
      <trkpt lat="43.20158" lon="-1.1423">
        <ele>227.1</ele>
        <time>2016-09-28T16:07:39Z</time>
      </trkpt>
      <trkpt lat="43.20175" lon="-1.14284">
        <ele>230.7</ele>
      </trkpt>
      <trkpt lat="43.20195" lon="-1.14323">
        <ele>233.1</ele>
      </trkpt>
      <trkpt lat="43.20164" lon="-1.14372">
        <ele>234.7</ele>
        <time>2016-09-28T16:08:59Z</time>
      </trkpt>
      <trkpt lat="43.20072" lon="-1.14412">
        <ele>233.879</ele>
        <time>2016-09-28T16:09:39Z</time>
      </trkpt>
      <trkpt lat="43.20055" lon="-1.14446">
        <ele>234.198</ele>
        <time>2016-09-28T16:10:19Z</time>
      </trkpt>
      <trkpt lat="43.20004" lon="-1.1451">
        <ele>233.369</ele>
        <time>2016-09-28T16:10:59Z</time>
      </trkpt>
      <trkpt lat="43.19979" lon="-1.14641">
        <ele>238.804</ele>
        <time>2016-09-28T16:11:39Z</time>
      </trkpt>
      <trkpt lat="43.19905" lon="-1.1477">
        <ele>237.324</ele>
        <time>2016-09-28T16:12:19Z</time>
      </trkpt>
      <trkpt lat="43.19878" lon="-1.14905">
        <ele>235.508</ele>
        <time>2016-09-28T16:12:59Z</time>
      </trkpt>
      <trkpt lat="43.19838" lon="-1.15006">
        <ele>230.342</ele>
        <time>2016-09-28T16:13:39Z</time>
      </trkpt>
      <trkpt lat="43.19869" lon="-1.15137">
        <ele>231.989</ele>
        <time>2016-09-28T16:14:19Z</time>
      </trkpt>
      <trkpt lat="43.1981" lon="-1.15264">
        <ele>230.018</ele>
        <time>2016-09-28T16:14:59Z</time>
      </trkpt>
      <trkpt lat="43.19788" lon="-1.15379">
        <ele>228.917</ele>
        <time>2016-09-28T16:15:39Z</time>
      </trkpt>
      <trkpt lat="43.19733" lon="-1.15356">
        <ele>224.893</ele>
        <time>2016-09-28T16:16:19Z</time>
      </trkpt>
      <trkpt lat="43.19672" lon="-1.15227">
        <ele>220.054</ele>
        <time>2016-09-28T16:16:59Z</time>
      </trkpt>
      <trkpt lat="43.19631" lon="-1.15197">
        <ele>218.237</ele>
        <time>2016-09-28T16:17:39Z</time>
      </trkpt>
      <trkpt lat="43.19577" lon="-1.15081">
        <ele>217.026</ele>
        <time>2016-09-28T16:18:19Z</time>
      </trkpt>
      <trkpt lat="43.19473" lon="-1.15053">
        <ele>218.067</ele>
        <time>2016-09-28T16:18:59Z</time>
      </trkpt>
      <trkpt lat="43.19415" lon="-1.14976">
        <ele>225.781</ele>
        <time>2016-09-28T16:19:39Z</time>
      </trkpt>
      <trkpt lat="43.19356" lon="-1.14933">
        <ele>227.219</ele>
        <time>2016-09-28T16:20:19Z</time>
      </trkpt>
      <trkpt lat="43.19221" lon="-1.15204">
        <ele>222.008</ele>
        <time>2016-09-28T16:20:59Z</time>
      </trkpt>
      <trkpt lat="43.19214" lon="-1.15249">
        <ele>220.752</ele>
        <time>2016-09-28T16:21:39Z</time>
      </trkpt>
      <trkpt lat="43.19153" lon="-1.15294">
        <ele>217.739</ele>
        <time>2016-09-28T16:22:19Z</time>
      </trkpt>
      <trkpt lat="43.19104" lon="-1.15296">
        <ele>221.118</ele>
        <time>2016-09-28T16:22:59Z</time>
      </trkpt>
      <trkpt lat="43.1907" lon="-1.15433">
        <ele>224.527</ele>
        <time>2016-09-28T16:23:39Z</time>
      </trkpt>
      <trkpt lat="43.19013" lon="-1.15478">
        <ele>226.993</ele>
        <time>2016-09-28T16:24:19Z</time>
      </trkpt>
      <trkpt lat="43.18926" lon="-1.15575">
        <ele>212.034</ele>
        <time>2016-09-28T16:24:59Z</time>
      </trkpt>
      <trkpt lat="43.1888" lon="-1.15538">
        <ele>215.137</ele>
        <time>2016-09-28T16:25:39Z</time>
      </trkpt>
      <trkpt lat="43.18779" lon="-1.15785">
        <ele>213.746</ele>
        <time>2016-09-28T16:26:19Z</time>
      </trkpt>
      <trkpt lat="43.18754" lon="-1.15817">
        <ele>213.034</ele>
        <time>2016-09-28T16:26:59Z</time>
      </trkpt>
      <trkpt lat="43.18732" lon="-1.15912">
        <ele>209.255</ele>
        <time>2016-09-28T16:27:39Z</time>
      </trkpt>
      <trkpt lat="43.18669" lon="-1.15894">
        <ele>209.81</ele>
        <time>2016-09-28T16:28:19Z</time>
      </trkpt>
      <trkpt lat="43.18628" lon="-1.15918">
        <ele>211.108</ele>
        <time>2016-09-28T16:28:59Z</time>
      </trkpt>
      <trkpt lat="43.18613" lon="-1.1597">
        <ele>211.899</ele>
        <time>2016-09-28T16:29:39Z</time>
      </trkpt>
      <trkpt lat="43.18527" lon="-1.15952">
        <ele>221.386</ele>
        <time>2016-09-28T16:30:19Z</time>
      </trkpt>
      <trkpt lat="43.18472" lon="-1.15985">
        <ele>225.575</ele>
        <time>2016-09-28T16:30:59Z</time>
      </trkpt>
      <trkpt lat="43.18489" lon="-1.16043">
        <ele>225.864</ele>
        <time>2016-09-28T16:31:39Z</time>
      </trkpt>
      <trkpt lat="43.18422" lon="-1.16246">
        <ele>233.55</ele>
        <time>2016-09-28T16:32:19Z</time>
      </trkpt>
      <trkpt lat="43.18386" lon="-1.16279">
        <ele>239.691</ele>
        <time>2016-09-28T16:32:59Z</time>
      </trkpt>
      <trkpt lat="43.18361" lon="-1.16321">
        <ele>238.514</ele>
        <time>2016-09-28T16:33:39Z</time>
      </trkpt>
      <trkpt lat="43.18367" lon="-1.16386">
        <ele>233.363</ele>
        <time>2016-09-28T16:34:19Z</time>
      </trkpt>
      <trkpt lat="43.18337" lon="-1.16525">
        <ele>230.861</ele>
        <time>2016-09-28T16:34:59Z</time>
      </trkpt>
      <trkpt lat="43.18336" lon="-1.166">
        <ele>224.521</ele>
        <time>2016-09-28T16:35:39Z</time>
      </trkpt>
      <trkpt lat="43.18308" lon="-1.16658">
        <ele>227.313</ele>
        <time>2016-09-28T16:36:19Z</time>
      </trkpt>
      <trkpt lat="43.18308" lon="-1.16718">
        <ele>221.108</ele>
        <time>2016-09-28T16:36:59Z</time>
      </trkpt>
      <trkpt lat="43.18295" lon="-1.16772">
        <ele>218.322</ele>
        <time>2016-09-28T16:37:39Z</time>
      </trkpt>
      <trkpt lat="43.18322" lon="-1.16839">
        <ele>212.549</ele>
        <time>2016-09-28T16:38:19Z</time>
      </trkpt>
      <trkpt lat="43.18294" lon="-1.16892">
        <ele>209.728</ele>
        <time>2016-09-28T16:38:59Z</time>
      </trkpt>
      <trkpt lat="43.18345" lon="-1.16995">
        <ele>199.037</ele>
        <time>2016-09-28T16:39:39Z</time>
      </trkpt>
      <trkpt lat="43.18258" lon="-1.16963">
        <ele>204.813</ele>
        <time>2016-09-28T16:40:19Z</time>
      </trkpt>
      <trkpt lat="43.18215" lon="-1.17008">
        <ele>211.344</ele>
        <time>2016-09-28T16:40:59Z</time>
      </trkpt>
      <trkpt lat="43.1814" lon="-1.17027">
        <ele>221.987</ele>
        <time>2016-09-28T16:41:39Z</time>
      </trkpt>
      <trkpt lat="43.18025" lon="-1.17034">
        <ele>243.226</ele>
        <time>2016-09-28T16:42:19Z</time>
      </trkpt>
      <trkpt lat="43.18007" lon="-1.17092">
        <ele>238.615</ele>
        <time>2016-09-28T16:42:59Z</time>
      </trkpt>
      <trkpt lat="43.17899" lon="-1.17124">
        <ele>247.065</ele>
        <time>2016-09-28T16:43:39Z</time>
      </trkpt>
      <trkpt lat="43.17832" lon="-1.17285">
        <ele>249.611</ele>
        <time>2016-09-28T16:44:19Z</time>
      </trkpt>
      <trkpt lat="43.17687" lon="-1.17261">
        <ele>264.708</ele>
        <time>2016-09-28T16:44:59Z</time>
      </trkpt>
      <trkpt lat="43.17572" lon="-1.17298">
        <ele>275.627</ele>
        <time>2016-09-28T16:45:39Z</time>
      </trkpt>
      <trkpt lat="43.17427" lon="-1.17242">
        <ele>253.384</ele>
        <time>2016-09-28T16:46:19Z</time>
      </trkpt>
      <trkpt lat="43.17403" lon="-1.17206">
        <ele>248.353</ele>
        <time>2016-09-28T16:46:59Z</time>
      </trkpt>
      <trkpt lat="43.1738" lon="-1.17199">
        <ele>244.372</ele>
        <time>2016-09-28T16:47:39Z</time>
      </trkpt>
      <trkpt lat="43.17361" lon="-1.17255">
        <ele>243.848</ele>
        <time>2016-09-28T16:48:19Z</time>
      </trkpt>
      <trkpt lat="43.17295" lon="-1.17246">
        <ele>233.789</ele>
        <time>2016-09-28T16:48:59Z</time>
      </trkpt>
      <trkpt lat="43.17089" lon="-1.17063">
        <ele>215.8</ele>
        <time>2016-09-28T16:49:39Z</time>
      </trkpt>
      <trkpt lat="43.16995" lon="-1.17081">
        <ele>220.631</ele>
        <time>2016-09-28T16:50:19Z</time>
      </trkpt>
      <trkpt lat="43.1687" lon="-1.1712">
        <ele>220.029</ele>
        <time>2016-09-28T16:50:59Z</time>
      </trkpt>
      <trkpt lat="43.16816" lon="-1.17115">
        <ele>220</ele>
        <time>2016-09-28T16:51:39Z</time>
      </trkpt>
      <trkpt lat="43.16693" lon="-1.17186">
        <ele>219.92</ele>
        <time>2016-09-28T16:52:19Z</time>
      </trkpt>
      <trkpt lat="43.16677" lon="-1.1721">
        <ele>219.008</ele>
        <time>2016-09-28T16:52:59Z</time>
      </trkpt>
      <trkpt lat="43.1664" lon="-1.17221">
        <ele>216.138</ele>
        <time>2016-09-28T16:53:39Z</time>
      </trkpt>
      <trkpt lat="43.16496" lon="-1.17296">
        <ele>211.035</ele>
        <time>2016-09-28T16:54:19Z</time>
      </trkpt>
      <trkpt lat="43.16474" lon="-1.17332">
        <ele>210.084</ele>
        <time>2016-09-28T16:54:59Z</time>
      </trkpt>
      <trkpt lat="43.16347" lon="-1.17414">
        <ele>210.063</ele>
        <time>2016-09-28T16:55:39Z</time>
      </trkpt>
      <trkpt lat="43.16045" lon="-1.17995">
        <ele>205.269</ele>
        <time>2016-09-28T16:56:19Z</time>
      </trkpt>
      <trkpt lat="43.16086" lon="-1.1819">
        <ele>208.64</ele>
        <time>2016-09-28T16:56:59Z</time>
      </trkpt>
      <trkpt lat="43.16151" lon="-1.18231">
        <ele>210.7</ele>
        <time>2016-09-28T16:57:39Z</time>
      </trkpt>
      <trkpt lat="43.16239" lon="-1.18523">
        <ele>220.072</ele>
        <time>2016-09-28T16:58:19Z</time>
      </trkpt>
      <trkpt lat="43.16319" lon="-1.1865">
        <ele>218.592</ele>
        <time>2016-09-28T16:58:59Z</time>
      </trkpt>
      <trkpt lat="43.16431" lon="-1.18935">
        <ele>207.773</ele>
        <time>2016-09-28T16:59:39Z</time>
      </trkpt>
      <trkpt lat="43.16444" lon="-1.19049">
        <ele>205.02</ele>
        <time>2016-09-28T17:00:19Z</time>
      </trkpt>
      <trkpt lat="43.16466" lon="-1.19115">
        <ele>204.008</ele>
        <time>2016-09-28T17:00:59Z</time>
      </trkpt>
      <trkpt lat="43.16461" lon="-1.19127">
        <ele>201.4</ele>
      </trkpt>
      <trkpt lat="43.1643" lon="-1.1919">
        <ele>201.6</ele>
        <time>2016-09-28T17:01:39Z</time>
      </trkpt>
      <trkpt lat="43.16438" lon="-1.19332">
        <ele>200.032</ele>
        <time>2016-09-28T17:02:19Z</time>
      </trkpt>
      <trkpt lat="43.16542" lon="-1.19388">
        <ele>203</ele>
      </trkpt>
      <trkpt lat="43.16569" lon="-1.19385">
        <ele>203.1</ele>
      </trkpt>
      <trkpt lat="43.16588" lon="-1.19424">
        <ele>200.081</ele>
        <time>2016-09-28T17:02:59Z</time>
      </trkpt>
      <trkpt lat="43.16643" lon="-1.19489">
        <ele>200.09</ele>
        <time>2016-09-28T17:03:39Z</time>
      </trkpt>
      <trkpt lat="43.1666" lon="-1.19553">
        <ele>200.046</ele>
        <time>2016-09-28T17:04:19Z</time>
      </trkpt>
      <trkpt lat="43.16679" lon="-1.19684">
        <ele>200.097</ele>
        <time>2016-09-28T17:04:59Z</time>
      </trkpt>
      <trkpt lat="43.16708" lon="-1.19705">
        <ele>200.08</ele>
        <time>2016-09-28T17:05:39Z</time>
      </trkpt>
      <trkpt lat="43.16716" lon="-1.19858">
        <ele>200.049</ele>
        <time>2016-09-28T17:06:19Z</time>
      </trkpt>
      <trkpt lat="43.16743" lon="-1.20019">
        <ele>199.377</ele>
        <time>2016-09-28T17:06:59Z</time>
      </trkpt>
      <trkpt lat="43.16779" lon="-1.20051">
        <ele>199.261</ele>
        <time>2016-09-28T17:07:39Z</time>
      </trkpt>
      <trkpt lat="43.16765" lon="-1.201">
        <ele>198.027</ele>
        <time>2016-09-28T17:08:19Z</time>
      </trkpt>
      <trkpt lat="43.16784" lon="-1.20212">
        <ele>195.908</ele>
        <time>2016-09-28T17:08:59Z</time>
      </trkpt>
      <trkpt lat="43.16848" lon="-1.20409">
        <ele>193.033</ele>
        <time>2016-09-28T17:09:39Z</time>
      </trkpt>
      <trkpt lat="43.16898" lon="-1.20497">
        <ele>192.02</ele>
        <time>2016-09-28T17:10:19Z</time>
      </trkpt>
      <trkpt lat="43.1681" lon="-1.20654">
        <ele>190.099</ele>
        <time>2016-09-28T17:10:59Z</time>
      </trkpt>
      <trkpt lat="43.16768" lon="-1.20851">
        <ele>184.928</ele>
        <time>2016-09-28T17:11:39Z</time>
      </trkpt>
      <trkpt lat="43.16753" lon="-1.20993">
        <ele>183.024</ele>
        <time>2021-01-03T23:14:40Z</time>
      </trkpt>
      <trkpt lat="43.1672" lon="-1.21025">
        <ele>182.125</ele>
        <time>2021-01-03T23:15:00Z</time>
      </trkpt>
      <trkpt lat="43.16717" lon="-1.21071">
        <ele>182</ele>
        <time>2021-01-03T23:15:20Z</time>
      </trkpt>
      <trkpt lat="43.16695" lon="-1.2107">
        <ele>182</ele>
      </trkpt>
      <trkpt lat="43.16676" lon="-1.21069">
        <ele>180.537</ele>
        <time>2021-01-03T23:15:40Z</time>
      </trkpt>
      <trkpt lat="43.16668" lon="-1.21012">
        <ele>181.075</ele>
        <time>2021-01-03T23:16:00Z</time>
      </trkpt>
      <trkpt lat="43.16537" lon="-1.21079">
        <ele>181</ele>
        <time>2016-09-28T17:13:39Z</time>
      </trkpt>
      <trkpt lat="43.16574" lon="-1.21388">
        <ele>174.02</ele>
        <time>2016-09-28T17:14:19Z</time>
      </trkpt>
      <trkpt lat="43.16618" lon="-1.21568">
        <ele>170.808</ele>
        <time>2016-09-28T17:14:59Z</time>
      </trkpt>
      <trkpt lat="43.1662" lon="-1.21633">
        <ele>174</ele>
      </trkpt>
      <trkpt lat="43.1662" lon="-1.21697">
        <ele>173.3</ele>
        <time>2016-09-28T17:15:39Z</time>
      </trkpt>
      <trkpt lat="43.16611" lon="-1.21737">
        <ele>173</ele>
      </trkpt>
      <trkpt lat="43.16616" lon="-1.21762">
        <ele>173</ele>
      </trkpt>
      <trkpt lat="43.16563" lon="-1.21808">
        <ele>168.37</ele>
        <time>2016-09-28T17:16:19Z</time>
      </trkpt>
      <trkpt lat="43.16539" lon="-1.21848">
        <ele>170</ele>
      </trkpt>
      <trkpt lat="43.16508" lon="-1.21881">
        <ele>169.1</ele>
        <time>2016-09-28T17:16:59Z</time>
      </trkpt>
      <trkpt lat="43.16474" lon="-1.21976">
        <ele>168.9</ele>
      </trkpt>
      <trkpt lat="43.16479" lon="-1.22015">
        <ele>168.6</ele>
      </trkpt>
      <trkpt lat="43.16472" lon="-1.22066">
        <ele>165.648</ele>
        <time>2016-09-28T17:17:39Z</time>
      </trkpt>
      <trkpt lat="43.16444" lon="-1.22161">
        <ele>167.2</ele>
      </trkpt>
      <trkpt lat="43.16425" lon="-1.22265">
        <ele>166.274</ele>
        <time>2016-09-28T17:18:19Z</time>
      </trkpt>
      <trkpt lat="43.16427" lon="-1.22311">
        <ele>167</ele>
        <time>2016-09-28T17:18:59Z</time>
      </trkpt>
      <trkpt lat="43.16414" lon="-1.22357">
        <ele>166.2</ele>
      </trkpt>
      <trkpt lat="43.16414" lon="-1.22403">
        <ele>168.178</ele>
        <time>2016-09-28T17:19:39Z</time>
      </trkpt>
      <trkpt lat="43.164" lon="-1.22424">
        <ele>169.587</ele>
        <time>2016-09-28T17:20:19Z</time>
      </trkpt>
      <trkpt lat="43.16327" lon="-1.22806">
        <ele>176.054</ele>
        <time>2016-09-28T17:20:59Z</time>
      </trkpt>
      <trkpt lat="43.16297" lon="-1.22856">
        <ele>173.1</ele>
      </trkpt>
      <trkpt lat="43.16275" lon="-1.22911">
        <ele>177.156</ele>
        <time>2016-09-28T17:21:39Z</time>
      </trkpt>
      <trkpt lat="43.16237" lon="-1.23084">
        <ele>197.211</ele>
        <time>2016-09-28T17:22:19Z</time>
      </trkpt>
      <trkpt lat="43.16239" lon="-1.23133">
        <ele>200.908</ele>
        <time>2016-09-28T17:22:59Z</time>
      </trkpt>
      <trkpt lat="43.16366" lon="-1.23423">
        <ele>185.571</ele>
        <time>2016-09-28T17:23:39Z</time>
      </trkpt>
      <trkpt lat="43.16367" lon="-1.23489">
        <ele>182.488</ele>
        <time>2016-09-28T17:24:19Z</time>
      </trkpt>
      <trkpt lat="43.16341" lon="-1.23586">
        <ele>175.847</ele>
        <time>2016-09-28T17:24:59Z</time>
      </trkpt>
      <trkpt lat="43.16281" lon="-1.23698">
        <ele>164.886</ele>
        <time>2016-09-28T17:25:39Z</time>
      </trkpt>
      <trkpt lat="43.16276" lon="-1.23702">
        <ele>169.3</ele>
      </trkpt>
      <trkpt lat="43.16218" lon="-1.2373">
        <ele>160.6</ele>
      </trkpt>
      <trkpt lat="43.1616" lon="-1.23763">
        <ele>164.2</ele>
      </trkpt>
      <trkpt lat="43.16145" lon="-1.23772">
        <ele>164.8</ele>
      </trkpt>
      <trkpt lat="43.16161" lon="-1.23822">
        <ele>164.1</ele>
      </trkpt>
      <trkpt lat="43.16163" lon="-1.23829">
        <ele>163.7</ele>
      </trkpt>
      <trkpt lat="43.16177" lon="-1.23886">
        <ele>165.1</ele>
      </trkpt>
      <trkpt lat="43.16181" lon="-1.23886">
        <ele>164.8</ele>
      </trkpt>
      <trkpt lat="43.16195" lon="-1.23885">
        <ele>163.8</ele>
      </trkpt>
      <trkpt lat="43.16196" lon="-1.2389">
        <ele>164.1</ele>
      </trkpt>
      <trkpt lat="43.162" lon="-1.23893">
        <ele>164.3</ele>
      </trkpt>
      <trkpt lat="43.16204" lon="-1.23898">
        <ele>164.7</ele>
      </trkpt>
      <trkpt lat="43.16248" lon="-1.23941">
        <ele>164.2</ele>
      </trkpt>
      <trkpt lat="43.16251" lon="-1.2395">
        <ele>163.9</ele>
      </trkpt>
      <trkpt lat="43.16253" lon="-1.23954">
        <ele>163.8</ele>
      </trkpt>
      <trkpt lat="43.16263" lon="-1.23963">
        <ele>163.2</ele>
      </trkpt>
      <trkpt lat="43.16276" lon="-1.23985">
        <ele>163.1</ele>
      </trkpt>
      <trkpt lat="43.16285" lon="-1.23996">
        <ele>162.4</ele>
      </trkpt>
      <trkpt lat="43.16301" lon="-1.24021">
        <ele>161.5</ele>
      </trkpt>
      <trkpt lat="43.16308" lon="-1.24029">
        <ele>160.9</ele>
      </trkpt>
      <trkpt lat="43.16334" lon="-1.24066">
        <ele>160.7</ele>
      </trkpt>
      <trkpt lat="43.16364" lon="-1.24108">
        <ele>158.8</ele>
      </trkpt>
      <trkpt lat="43.16375" lon="-1.24125">
        <ele>158.2</ele>
      </trkpt>
      <trkpt lat="43.16386" lon="-1.24146">
        <ele>158.4</ele>
      </trkpt>
      <trkpt lat="43.16397" lon="-1.24194">
        <ele>158.7</ele>
      </trkpt>
      <trkpt lat="43.16402" lon="-1.24217">
        <ele>160.6</ele>
      </trkpt>
      <trkpt lat="43.16407" lon="-1.24232">
        <ele>161.1</ele>
      </trkpt>
      <trkpt lat="43.16413" lon="-1.24246">
        <ele>160.6</ele>
      </trkpt>
      <trkpt lat="43.16408" lon="-1.24253">
        <ele>161.6</ele>
      </trkpt>
      <trkpt lat="43.16409" lon="-1.24261">
        <ele>161.6</ele>
      </trkpt>
      <trkpt lat="43.16434" lon="-1.24346">
        <ele>165.9</ele>
      </trkpt>
      <trkpt lat="43.16443" lon="-1.24359">
        <ele>166</ele>
      </trkpt>
      <trkpt lat="43.16443" lon="-1.24368">
        <ele>166.9</ele>
      </trkpt>
      <trkpt lat="43.16445" lon="-1.24377">
        <ele>167.6</ele>
      </trkpt>
      <trkpt lat="43.16448" lon="-1.2439">
        <ele>168.7</ele>
      </trkpt>
      <trkpt lat="43.16451" lon="-1.24414">
        <ele>170.3</ele>
      </trkpt>
      <trkpt lat="43.16454" lon="-1.24435">
        <ele>171</ele>
      </trkpt>
      <trkpt lat="43.16454" lon="-1.24472">
        <ele>170.7</ele>
      </trkpt>
      <trkpt lat="43.16452" lon="-1.24478">
        <ele>169.9</ele>
      </trkpt>
      <trkpt lat="43.16448" lon="-1.24483">
        <ele>169.6</ele>
      </trkpt>
      <trkpt lat="43.16435" lon="-1.24496">
        <ele>169.5</ele>
      </trkpt>
      <trkpt lat="43.16418" lon="-1.24506">
        <ele>169.4</ele>
      </trkpt>
      <trkpt lat="43.16376" lon="-1.24523">
        <ele>170.4</ele>
      </trkpt>
      <trkpt lat="43.16374" lon="-1.24525">
        <ele>170.4</ele>
      </trkpt>
      <trkpt lat="43.16369" lon="-1.24528">
        <ele>170.8</ele>
      </trkpt>
      <trkpt lat="43.16361" lon="-1.24536">
        <ele>170.2</ele>
      </trkpt>
      <trkpt lat="43.16329" lon="-1.246">
        <ele>166.9</ele>
      </trkpt>
      <trkpt lat="43.16302" lon="-1.2467">
        <ele>165.3</ele>
      </trkpt>
      <trkpt lat="43.1629" lon="-1.24724">
        <ele>165.2</ele>
      </trkpt>
      <trkpt lat="43.16289" lon="-1.24727">
        <ele>165.1</ele>
      </trkpt>
      <trkpt lat="43.16285" lon="-1.24736">
        <ele>164.6</ele>
      </trkpt>
      <trkpt lat="43.1628" lon="-1.24743">
        <ele>164.1</ele>
      </trkpt>
      <trkpt lat="43.16273" lon="-1.24747">
        <ele>163.8</ele>
      </trkpt>
      <trkpt lat="43.16268" lon="-1.24749">
        <ele>163.6</ele>
      </trkpt>
      <trkpt lat="43.16261" lon="-1.2475">
        <ele>163.6</ele>
      </trkpt>
      <trkpt lat="43.16251" lon="-1.24752">
        <ele>163.9</ele>
      </trkpt>
      <trkpt lat="43.16225" lon="-1.24757">
        <ele>163.7</ele>
      </trkpt>
      <trkpt lat="43.16211" lon="-1.2476">
        <ele>164.3</ele>
      </trkpt>
      <trkpt lat="43.16194" lon="-1.24767">
        <ele>164.8</ele>
      </trkpt>
      <trkpt lat="43.16179" lon="-1.2478">
        <ele>165.1</ele>
      </trkpt>
      <trkpt lat="43.16164" lon="-1.24818">
        <ele>164.7</ele>
        <extensions>
          <visugpx:TrkExtension xmlns:visugpx="https://www.visugpx.com/editgpx/">
            <visugpx:node>1</visugpx:node>
            </visugpx:TrkExtension>
        </extensions>
      </trkpt>
      <trkpt lat="43.16156" lon="-1.24839">
        <ele>164.8</ele>
      </trkpt>
      <trkpt lat="43.16149" lon="-1.24849">
        <ele>165.1</ele>
      </trkpt>
      <trkpt lat="43.16143" lon="-1.24856">
        <ele>165.1</ele>
      </trkpt>
      <trkpt lat="43.16129" lon="-1.24866">
        <ele>164.8</ele>
      </trkpt>
      <trkpt lat="43.16107" lon="-1.24878">
        <ele>164.6</ele>
      </trkpt>
      <trkpt lat="43.16094" lon="-1.2488">
        <ele>164.9</ele>
      </trkpt>
      <trkpt lat="43.16068" lon="-1.24878">
        <ele>165.2</ele>
      </trkpt>
      <trkpt lat="43.16061" lon="-1.24881">
        <ele>164.6</ele>
      </trkpt>
      <trkpt lat="43.16055" lon="-1.24887">
        <ele>163.3</ele>
      </trkpt>
      <trkpt lat="43.16045" lon="-1.24907">
        <ele>162.2</ele>
      </trkpt>
      <trkpt lat="43.16038" lon="-1.24917">
        <ele>162.9</ele>
      </trkpt>
      <trkpt lat="43.1601" lon="-1.24947">
        <ele>165</ele>
      </trkpt>
      <trkpt lat="43.16003" lon="-1.24957">
        <ele>165</ele>
      </trkpt>
      <trkpt lat="43.15997" lon="-1.24971">
        <ele>165.1</ele>
      </trkpt>
      <trkpt lat="43.15963" lon="-1.25063">
        <ele>166.5</ele>
      </trkpt>
      <trkpt lat="43.15954" lon="-1.25087">
        <ele>167.1</ele>
      </trkpt>
      <trkpt lat="43.15948" lon="-1.25099">
        <ele>167.6</ele>
      </trkpt>
      <trkpt lat="43.15913" lon="-1.25172">
        <ele>171.2</ele>
      </trkpt>
      <trkpt lat="43.15901" lon="-1.25188">
        <ele>172.5</ele>
      </trkpt>
      <trkpt lat="43.15894" lon="-1.25197">
        <ele>172.1</ele>
      </trkpt>
      <trkpt lat="43.15854" lon="-1.25226">
        <ele>173.6</ele>
      </trkpt>
      <trkpt lat="43.15826" lon="-1.25249">
        <ele>174.8</ele>
      </trkpt>
      <trkpt lat="43.15796" lon="-1.25283">
        <ele>175.8</ele>
      </trkpt>
      <trkpt lat="43.15785" lon="-1.25301">
        <ele>176.3</ele>
      </trkpt>
      <trkpt lat="43.15781" lon="-1.25313">
        <ele>176.3</ele>
      </trkpt>
      <trkpt lat="43.15777" lon="-1.2533">
        <ele>176.7</ele>
      </trkpt>
      <trkpt lat="43.15761" lon="-1.2544">
        <ele>180.2</ele>
      </trkpt>
      <trkpt lat="43.15756" lon="-1.25461">
        <ele>180.7</ele>
      </trkpt>
      <trkpt lat="43.15752" lon="-1.25474">
        <ele>181.3</ele>
      </trkpt>
      <trkpt lat="43.15745" lon="-1.25489">
        <ele>181.7</ele>
      </trkpt>
      <trkpt lat="43.15722" lon="-1.2553">
        <ele>182.5</ele>
      </trkpt>
      <trkpt lat="43.15709" lon="-1.25557">
        <ele>185.2</ele>
      </trkpt>
      <trkpt lat="43.15703" lon="-1.25581">
        <ele>184.5</ele>
      </trkpt>
      <trkpt lat="43.15703" lon="-1.25612">
        <ele>185.1</ele>
      </trkpt>
      <trkpt lat="43.1571" lon="-1.25656">
        <ele>186.3</ele>
      </trkpt>
      <trkpt lat="43.15712" lon="-1.25704">
        <ele>188.2</ele>
      </trkpt>
      <trkpt lat="43.15714" lon="-1.25726">
        <ele>189.2</ele>
      </trkpt>
      <trkpt lat="43.15715" lon="-1.2573">
        <ele>189.4</ele>
      </trkpt>
      <trkpt lat="43.15724" lon="-1.25777">
        <ele>192</ele>
      </trkpt>
      <trkpt lat="43.15726" lon="-1.25788">
        <ele>192.5</ele>
      </trkpt>
      <trkpt lat="43.15735" lon="-1.25838">
        <ele>194.6</ele>
      </trkpt>
      <trkpt lat="43.1574" lon="-1.25861">
        <ele>195</ele>
      </trkpt>
      <trkpt lat="43.15741" lon="-1.25872">
        <ele>195.4</ele>
      </trkpt>
      <trkpt lat="43.1574" lon="-1.25893">
        <ele>196.2</ele>
      </trkpt>
      <trkpt lat="43.15736" lon="-1.25902">
        <ele>196.7</ele>
      </trkpt>
      <trkpt lat="43.15719" lon="-1.25932">
        <ele>198.1</ele>
      </trkpt>
      <trkpt lat="43.15714" lon="-1.25948">
        <ele>199.2</ele>
      </trkpt>
      <trkpt lat="43.15711" lon="-1.25977">
        <ele>200.8</ele>
      </trkpt>
      <trkpt lat="43.15712" lon="-1.25992">
        <ele>201.6</ele>
      </trkpt>
      <trkpt lat="43.15716" lon="-1.26013">
        <ele>202.8</ele>
      </trkpt>
      <trkpt lat="43.15719" lon="-1.26023">
        <ele>203.6</ele>
      </trkpt>
      <trkpt lat="43.15711" lon="-1.26028">
        <ele>203.6</ele>
      </trkpt>
      <trkpt lat="43.1571" lon="-1.26043">
        <ele>205.1</ele>
      </trkpt>
      <trkpt lat="43.15705" lon="-1.26089">
        <ele>208.8</ele>
      </trkpt>
      <trkpt lat="43.15707" lon="-1.26127">
        <ele>209.4</ele>
      </trkpt>
      <trkpt lat="43.15709" lon="-1.26143">
        <ele>209.6</ele>
      </trkpt>
      <trkpt lat="43.1571" lon="-1.26162">
        <ele>210.1</ele>
      </trkpt>
      <trkpt lat="43.15719" lon="-1.2624">
        <ele>214.2</ele>
      </trkpt>
      <trkpt lat="43.15722" lon="-1.26263">
        <ele>215.4</ele>
        <extensions>
          <visugpx:TrkExtension xmlns:visugpx="https://www.visugpx.com/editgpx/">
            <visugpx:node>2</visugpx:node>
            </visugpx:TrkExtension>
        </extensions>
      </trkpt>
      <trkpt lat="43.15724" lon="-1.26274">
        <ele>216.1</ele>
      </trkpt>
      <trkpt lat="43.15723" lon="-1.26288">
        <ele>216.8</ele>
      </trkpt>
      <trkpt lat="43.15721" lon="-1.26301">
        <ele>217.5</ele>
      </trkpt>
      <trkpt lat="43.15719" lon="-1.26321">
        <ele>219</ele>
      </trkpt>
      <trkpt lat="43.15716" lon="-1.26381">
        <ele>222.4</ele>
      </trkpt>
      <trkpt lat="43.15704" lon="-1.26523">
        <ele>225.2</ele>
      </trkpt>
      <trkpt lat="43.15705" lon="-1.26547">
        <ele>226.9</ele>
      </trkpt>
      <trkpt lat="43.15708" lon="-1.26593">
        <ele>229.2</ele>
      </trkpt>
      <trkpt lat="43.15712" lon="-1.26675">
        <ele>226.9</ele>
      </trkpt>
      <trkpt lat="43.15718" lon="-1.26727">
        <ele>229.4</ele>
      </trkpt>
      <trkpt lat="43.15717" lon="-1.26745">
        <ele>230.2</ele>
      </trkpt>
      <trkpt lat="43.15711" lon="-1.26753">
        <ele>231.1</ele>
      </trkpt>
      <trkpt lat="43.15686" lon="-1.26765">
        <ele>233.4</ele>
      </trkpt>
      <trkpt lat="43.1568" lon="-1.26771">
        <ele>233.6</ele>
      </trkpt>
      <trkpt lat="43.15693" lon="-1.26804">
        <ele>237.7</ele>
      </trkpt>
      <trkpt lat="43.15696" lon="-1.26821">
        <ele>239</ele>
      </trkpt>
      <trkpt lat="43.157" lon="-1.26847">
        <ele>241.6</ele>
      </trkpt>
      <trkpt lat="43.15687" lon="-1.26891">
        <ele>246.5</ele>
      </trkpt>
      <trkpt lat="43.15679" lon="-1.26911">
        <ele>248.5</ele>
      </trkpt>
      <trkpt lat="43.15654" lon="-1.26964">
        <ele>251.3</ele>
      </trkpt>
      <trkpt lat="43.15647" lon="-1.26999">
        <ele>255</ele>
      </trkpt>
      <trkpt lat="43.15629" lon="-1.27033">
        <ele>258.9</ele>
      </trkpt>
      <trkpt lat="43.15589" lon="-1.27084">
        <ele>261.7</ele>
      </trkpt>
      <trkpt lat="43.15576" lon="-1.27106">
        <ele>263.6</ele>
      </trkpt>
      <trkpt lat="43.15571" lon="-1.2712">
        <ele>264.7</ele>
      </trkpt>
      <trkpt lat="43.15566" lon="-1.27137">
        <ele>265.7</ele>
      </trkpt>
      <trkpt lat="43.15556" lon="-1.27179">
        <ele>269.3</ele>
      </trkpt>
      <trkpt lat="43.15551" lon="-1.2721">
        <ele>272.8</ele>
      </trkpt>
      <trkpt lat="43.15554" lon="-1.27234">
        <ele>275.7</ele>
      </trkpt>
      <trkpt lat="43.1555" lon="-1.27242">
        <ele>277</ele>
      </trkpt>
      <trkpt lat="43.15546" lon="-1.27247">
        <ele>277.9</ele>
      </trkpt>
      <trkpt lat="43.15523" lon="-1.27262">
        <ele>282.4</ele>
      </trkpt>
      <trkpt lat="43.15507" lon="-1.2728">
        <ele>286.3</ele>
      </trkpt>
      <trkpt lat="43.15502" lon="-1.27289">
        <ele>287.3</ele>
      </trkpt>
      <trkpt lat="43.15468" lon="-1.27385">
        <ele>293.8</ele>
      </trkpt>
      <trkpt lat="43.15463" lon="-1.27408">
        <ele>293.8</ele>
      </trkpt>
      <trkpt lat="43.15459" lon="-1.27432">
        <ele>293.4</ele>
      </trkpt>
      <trkpt lat="43.15459" lon="-1.27455">
        <ele>293.3</ele>
      </trkpt>
      <trkpt lat="43.15469" lon="-1.2755">
        <ele>294</ele>
      </trkpt>
      <trkpt lat="43.15464" lon="-1.27639">
        <ele>296.9</ele>
      </trkpt>
      <trkpt lat="43.15455" lon="-1.27678">
        <ele>300.4</ele>
      </trkpt>
      <trkpt lat="43.15465" lon="-1.27745">
        <ele>307.2</ele>
      </trkpt>
      <trkpt lat="43.15467" lon="-1.27773">
        <ele>309.8</ele>
      </trkpt>
      <trkpt lat="43.15464" lon="-1.27867">
        <ele>314.5</ele>
      </trkpt>
      <trkpt lat="43.15465" lon="-1.27882">
        <ele>315.1</ele>
      </trkpt>
      <trkpt lat="43.15472" lon="-1.27908">
        <ele>316.3</ele>
      </trkpt>
      <trkpt lat="43.15493" lon="-1.27973">
        <ele>311.9</ele>
      </trkpt>
      <trkpt lat="43.15495" lon="-1.27976">
        <ele>311.7</ele>
        <extensions>
          <visugpx:TrkExtension xmlns:visugpx="https://www.visugpx.com/editgpx/">
            <visugpx:node>3</visugpx:node>
            </visugpx:TrkExtension>
        </extensions>
      </trkpt>
      <trkpt lat="43.15531" lon="-1.28059">
        <ele>309.3</ele>
      </trkpt>
      <trkpt lat="43.15534" lon="-1.28083">
        <ele>308.9</ele>
      </trkpt>
      <trkpt lat="43.15533" lon="-1.28101">
        <ele>309.4</ele>
      </trkpt>
      <trkpt lat="43.1553" lon="-1.28113">
        <ele>309.4</ele>
      </trkpt>
      <trkpt lat="43.15526" lon="-1.28121">
        <ele>309</ele>
      </trkpt>
      <trkpt lat="43.15517" lon="-1.28137">
        <ele>308.7</ele>
      </trkpt>
      <trkpt lat="43.15503" lon="-1.28181">
        <ele>309.7</ele>
      </trkpt>
      <trkpt lat="43.15488" lon="-1.28252">
        <ele>311</ele>
      </trkpt>
      <trkpt lat="43.15489" lon="-1.28276">
        <ele>312.2</ele>
      </trkpt>
      <trkpt lat="43.15495" lon="-1.28306">
        <ele>313.7</ele>
      </trkpt>
      <trkpt lat="43.15516" lon="-1.28368">
        <ele>316.2</ele>
      </trkpt>
      <trkpt lat="43.15521" lon="-1.28374">
        <ele>317.9</ele>
      </trkpt>
      <trkpt lat="43.15527" lon="-1.28369">
        <ele>318.7</ele>
      </trkpt>
      <trkpt lat="43.15543" lon="-1.28362">
        <ele>318.6</ele>
      </trkpt>
      <trkpt lat="43.15567" lon="-1.28362">
        <ele>318.3</ele>
      </trkpt>
      <trkpt lat="43.15586" lon="-1.28368">
        <ele>317.2</ele>
      </trkpt>
      <trkpt lat="43.15601" lon="-1.28392">
        <ele>317.7</ele>
      </trkpt>
      <trkpt lat="43.15593" lon="-1.28403">
        <ele>319.5</ele>
      </trkpt>
      <trkpt lat="43.15573" lon="-1.2846">
        <ele>325</ele>
      </trkpt>
      <trkpt lat="43.15557" lon="-1.28506">
        <ele>327.9</ele>
      </trkpt>
      <trkpt lat="43.15542" lon="-1.28539">
        <ele>331.8</ele>
      </trkpt>
      <trkpt lat="43.15501" lon="-1.28597">
        <ele>341.3</ele>
      </trkpt>
      <trkpt lat="43.15469" lon="-1.28646">
        <ele>345.4</ele>
      </trkpt>
      <trkpt lat="43.15433" lon="-1.28685">
        <ele>349.7</ele>
      </trkpt>
      <trkpt lat="43.15416" lon="-1.28701">
        <ele>350.3</ele>
      </trkpt>
      <trkpt lat="43.15403" lon="-1.2871">
        <ele>350.4</ele>
      </trkpt>
      <trkpt lat="43.15365" lon="-1.28729">
        <ele>354.4</ele>
      </trkpt>
      <trkpt lat="43.15348" lon="-1.28732">
        <ele>357.2</ele>
      </trkpt>
      <trkpt lat="43.15337" lon="-1.28729">
        <ele>358.9</ele>
      </trkpt>
      <trkpt lat="43.15328" lon="-1.28748">
        <ele>361.6</ele>
      </trkpt>
      <trkpt lat="43.15277" lon="-1.28827">
        <ele>373.9</ele>
      </trkpt>
      <trkpt lat="43.15216" lon="-1.2888">
        <ele>384.1</ele>
      </trkpt>
      <trkpt lat="43.15186" lon="-1.28919">
        <ele>390.3</ele>
      </trkpt>
      <trkpt lat="43.15134" lon="-1.29028">
        <ele>399.1</ele>
      </trkpt>
      <trkpt lat="43.15123" lon="-1.29054">
        <ele>402</ele>
      </trkpt>
      <trkpt lat="43.15121" lon="-1.29082">
        <ele>404.4</ele>
      </trkpt>
      <trkpt lat="43.1512" lon="-1.29095">
        <ele>406.4</ele>
      </trkpt>
      <trkpt lat="43.15115" lon="-1.29098">
        <ele>408.1</ele>
      </trkpt>
      <trkpt lat="43.15113" lon="-1.291">
        <ele>408.9</ele>
      </trkpt>
      <trkpt lat="43.15091" lon="-1.29128">
        <ele>417</ele>
      </trkpt>
      <trkpt lat="43.15087" lon="-1.29145">
        <ele>420.8</ele>
      </trkpt>
      <trkpt lat="43.15088" lon="-1.29152">
        <ele>422.2</ele>
      </trkpt>
      <trkpt lat="43.1513" lon="-1.29223">
        <ele>433</ele>
      </trkpt>
      <trkpt lat="43.15132" lon="-1.29232">
        <ele>433.1</ele>
      </trkpt>
      <trkpt lat="43.15131" lon="-1.2924">
        <ele>433.9</ele>
      </trkpt>
      <trkpt lat="43.15127" lon="-1.29249">
        <ele>435.8</ele>
      </trkpt>
      <trkpt lat="43.15099" lon="-1.29303">
        <ele>440.2</ele>
      </trkpt>
      <trkpt lat="43.15097" lon="-1.29321">
        <ele>441.1</ele>
      </trkpt>
      <trkpt lat="43.15081" lon="-1.29373">
        <ele>448.8</ele>
      </trkpt>
      <trkpt lat="43.15073" lon="-1.29393">
        <ele>450.3</ele>
      </trkpt>
      <trkpt lat="43.15056" lon="-1.2941">
        <ele>455.2</ele>
      </trkpt>
      <trkpt lat="43.15037" lon="-1.29424">
        <ele>459.6</ele>
      </trkpt>
      <trkpt lat="43.15029" lon="-1.29434">
        <ele>460.4</ele>
      </trkpt>
      <trkpt lat="43.15025" lon="-1.29434">
        <ele>462.7</ele>
      </trkpt>
      <trkpt lat="43.15022" lon="-1.2943">
        <ele>465.7</ele>
      </trkpt>
      <trkpt lat="43.15026" lon="-1.29421">
        <ele>465.8</ele>
      </trkpt>
      <trkpt lat="43.15037" lon="-1.29408">
        <ele>464.5</ele>
      </trkpt>
      <trkpt lat="43.15043" lon="-1.29386">
        <ele>466.8</ele>
      </trkpt>
      <trkpt lat="43.15042" lon="-1.29373">
        <ele>467.1</ele>
      </trkpt>
      <trkpt lat="43.15038" lon="-1.29366">
        <ele>468.5</ele>
      </trkpt>
      <trkpt lat="43.1502" lon="-1.29349">
        <ele>472.7</ele>
      </trkpt>
      <trkpt lat="43.15" lon="-1.29337">
        <ele>476.9</ele>
      </trkpt>
      <trkpt lat="43.14995" lon="-1.29339">
        <ele>478</ele>
      </trkpt>
      <trkpt lat="43.14985" lon="-1.29338">
        <ele>479</ele>
      </trkpt>
      <trkpt lat="43.14975" lon="-1.29342">
        <ele>480.7</ele>
      </trkpt>
      <trkpt lat="43.14967" lon="-1.29358">
        <ele>480.3</ele>
      </trkpt>
      <trkpt lat="43.14941" lon="-1.29419">
        <ele>487.2</ele>
      </trkpt>
      <trkpt lat="43.14926" lon="-1.29441">
        <ele>489.4</ele>
      </trkpt>
      <trkpt lat="43.1489" lon="-1.29478">
        <ele>497.7</ele>
      </trkpt>
      <trkpt lat="43.14872" lon="-1.29492">
        <ele>500.9</ele>
      </trkpt>
      <trkpt lat="43.14837" lon="-1.29515">
        <ele>506.3</ele>
      </trkpt>
      <trkpt lat="43.14819" lon="-1.29523">
        <ele>510.1</ele>
      </trkpt>
      <trkpt lat="43.14818" lon="-1.29527">
        <ele>511.3</ele>
      </trkpt>
      <trkpt lat="43.14811" lon="-1.29532">
        <ele>513.3</ele>
      </trkpt>
      <trkpt lat="43.148" lon="-1.29534">
        <ele>515.4</ele>
      </trkpt>
      <trkpt lat="43.14787" lon="-1.2954">
        <ele>519.8</ele>
      </trkpt>
      <trkpt lat="43.14771" lon="-1.29539">
        <ele>523.3</ele>
      </trkpt>
      <trkpt lat="43.14766" lon="-1.29539">
        <ele>524.9</ele>
      </trkpt>
      <trkpt lat="43.14764" lon="-1.2954">
        <ele>525.8</ele>
      </trkpt>
      <trkpt lat="43.14755" lon="-1.29537">
        <ele>527.8</ele>
      </trkpt>
      <trkpt lat="43.1475" lon="-1.29531">
        <ele>527.8</ele>
      </trkpt>
      <trkpt lat="43.14743" lon="-1.29516">
        <ele>530.7</ele>
      </trkpt>
      <trkpt lat="43.14731" lon="-1.2945">
        <ele>544.5</ele>
      </trkpt>
      <trkpt lat="43.14729" lon="-1.29431">
        <ele>547.9</ele>
      </trkpt>
      <trkpt lat="43.1472" lon="-1.29415">
        <ele>554</ele>
      </trkpt>
      <trkpt lat="43.14719" lon="-1.29391">
        <ele>556</ele>
      </trkpt>
      <trkpt lat="43.14715" lon="-1.29379">
        <ele>557.1</ele>
      </trkpt>
      <trkpt lat="43.14709" lon="-1.29372">
        <ele>558.6</ele>
      </trkpt>
      <trkpt lat="43.14702" lon="-1.29377">
        <ele>561.2</ele>
      </trkpt>
      <trkpt lat="43.14696" lon="-1.29399">
        <ele>564.1</ele>
      </trkpt>
      <trkpt lat="43.14694" lon="-1.29405">
        <ele>564.5</ele>
      </trkpt>
      <trkpt lat="43.14661" lon="-1.2945">
        <ele>572.5</ele>
      </trkpt>
      <trkpt lat="43.14645" lon="-1.29478">
        <ele>576.9</ele>
      </trkpt>
      <trkpt lat="43.14634" lon="-1.29507">
        <ele>580.5</ele>
      </trkpt>
      <trkpt lat="43.14629" lon="-1.29527">
        <ele>583.3</ele>
      </trkpt>
      <trkpt lat="43.14622" lon="-1.29589">
        <ele>591.3</ele>
      </trkpt>
      <trkpt lat="43.14624" lon="-1.29624">
        <ele>595.6</ele>
      </trkpt>
      <trkpt lat="43.14634" lon="-1.29657">
        <ele>598.8</ele>
      </trkpt>
      <trkpt lat="43.14634" lon="-1.29668">
        <ele>600.4</ele>
      </trkpt>
      <trkpt lat="43.14627" lon="-1.2968">
        <ele>601.3</ele>
        <extensions>
          <visugpx:TrkExtension xmlns:visugpx="https://www.visugpx.com/editgpx/">
            <visugpx:node>4</visugpx:node>
            </visugpx:TrkExtension>
        </extensions>
      </trkpt>
      <trkpt lat="43.14622" lon="-1.2969">
        <ele>602.3</ele>
      </trkpt>
      <trkpt lat="43.14615" lon="-1.29696">
        <ele>605</ele>
      </trkpt>
      <trkpt lat="43.14609" lon="-1.29691">
        <ele>607.9</ele>
      </trkpt>
      <trkpt lat="43.14607" lon="-1.29671">
        <ele>609.2</ele>
      </trkpt>
      <trkpt lat="43.146" lon="-1.29656">
        <ele>610.1</ele>
      </trkpt>
      <trkpt lat="43.14579" lon="-1.29629">
        <ele>615.3</ele>
      </trkpt>
      <trkpt lat="43.14565" lon="-1.29607">
        <ele>617.9</ele>
      </trkpt>
      <trkpt lat="43.14552" lon="-1.29581">
        <ele>621.6</ele>
      </trkpt>
      <trkpt lat="43.14536" lon="-1.29538">
        <ele>626.1</ele>
      </trkpt>
      <trkpt lat="43.14518" lon="-1.29495">
        <ele>630.4</ele>
      </trkpt>
      <trkpt lat="43.14509" lon="-1.29477">
        <ele>632.2</ele>
      </trkpt>
      <trkpt lat="43.14501" lon="-1.29467">
        <ele>633.9</ele>
      </trkpt>
      <trkpt lat="43.14465" lon="-1.29425">
        <ele>640.9</ele>
      </trkpt>
      <trkpt lat="43.14455" lon="-1.29406">
        <ele>641.9</ele>
      </trkpt>
      <trkpt lat="43.1445" lon="-1.29403">
        <ele>643.4</ele>
      </trkpt>
      <trkpt lat="43.14445" lon="-1.29407">
        <ele>645.7</ele>
      </trkpt>
      <trkpt lat="43.14445" lon="-1.29415">
        <ele>646.6</ele>
      </trkpt>
      <trkpt lat="43.14453" lon="-1.29438">
        <ele>647.5</ele>
      </trkpt>
      <trkpt lat="43.14458" lon="-1.29476">
        <ele>651.6</ele>
      </trkpt>
      <trkpt lat="43.14459" lon="-1.29491">
        <ele>653.1</ele>
      </trkpt>
      <trkpt lat="43.1446" lon="-1.29514">
        <ele>655.6</ele>
      </trkpt>
      <trkpt lat="43.14461" lon="-1.29541">
        <ele>658.5</ele>
      </trkpt>
      <trkpt lat="43.14461" lon="-1.2957">
        <ele>661.8</ele>
      </trkpt>
      <trkpt lat="43.14459" lon="-1.29607">
        <ele>666.3</ele>
      </trkpt>
      <trkpt lat="43.14454" lon="-1.29635">
        <ele>670.3</ele>
      </trkpt>
      <trkpt lat="43.14444" lon="-1.29674">
        <ele>674.9</ele>
      </trkpt>
      <trkpt lat="43.14441" lon="-1.29681">
        <ele>676</ele>
      </trkpt>
      <trkpt lat="43.14436" lon="-1.29683">
        <ele>678.1</ele>
      </trkpt>
      <trkpt lat="43.14433" lon="-1.29675">
        <ele>679.6</ele>
      </trkpt>
      <trkpt lat="43.14433" lon="-1.29669">
        <ele>679.9</ele>
        <extensions>
          <visugpx:TrkExtension xmlns:visugpx="https://www.visugpx.com/editgpx/">
            <visugpx:node>5</visugpx:node>
            </visugpx:TrkExtension>
        </extensions>
      </trkpt>
      <trkpt lat="43.14434" lon="-1.29662">
        <ele>679.5</ele>
      </trkpt>
      <trkpt lat="43.14429" lon="-1.2964">
        <ele>681.7</ele>
      </trkpt>
      <trkpt lat="43.1442" lon="-1.29618">
        <ele>684.1</ele>
      </trkpt>
      <trkpt lat="43.14408" lon="-1.29597">
        <ele>686.9</ele>
      </trkpt>
      <trkpt lat="43.14376" lon="-1.29552">
        <ele>694.5</ele>
      </trkpt>
      <trkpt lat="43.14344" lon="-1.29514">
        <ele>700.3</ele>
      </trkpt>
      <trkpt lat="43.14323" lon="-1.29487">
        <ele>704.7</ele>
      </trkpt>
      <trkpt lat="43.1431" lon="-1.29469">
        <ele>707.2</ele>
        <extensions>
          <visugpx:TrkExtension xmlns:visugpx="https://www.visugpx.com/editgpx/">
            <visugpx:node>6</visugpx:node>
            </visugpx:TrkExtension>
        </extensions>
      </trkpt>
      <trkpt lat="43.14255" lon="-1.29391">
        <ele>719.4</ele>
      </trkpt>
      <trkpt lat="43.14209" lon="-1.29321">
        <ele>730.9</ele>
      </trkpt>
      <trkpt lat="43.14167" lon="-1.29251">
        <ele>741</ele>
      </trkpt>
      <trkpt lat="43.14131" lon="-1.29186">
        <ele>748.9</ele>
      </trkpt>
      <trkpt lat="43.14127" lon="-1.29184">
        <ele>749.4</ele>
      </trkpt>
      <trkpt lat="43.14118" lon="-1.29193">
        <ele>751.6</ele>
      </trkpt>
      <trkpt lat="43.14102" lon="-1.29214">
        <ele>756.3</ele>
      </trkpt>
      <trkpt lat="43.14097" lon="-1.29225">
        <ele>758.4</ele>
      </trkpt>
      <trkpt lat="43.14075" lon="-1.2926">
        <ele>765.7</ele>
      </trkpt>
      <trkpt lat="43.14066" lon="-1.29265">
        <ele>766.8</ele>
      </trkpt>
      <trkpt lat="43.14064" lon="-1.29273">
        <ele>768</ele>
      </trkpt>
      <trkpt lat="43.14045" lon="-1.2936">
        <ele>778.3</ele>
      </trkpt>
      <trkpt lat="43.14044" lon="-1.29398">
        <ele>785.9</ele>
      </trkpt>
      <trkpt lat="43.1405" lon="-1.2946">
        <ele>799.2</ele>
      </trkpt>
      <trkpt lat="43.14056" lon="-1.29502">
        <ele>808.4</ele>
      </trkpt>
      <trkpt lat="43.14068" lon="-1.29554">
        <ele>820.1</ele>
      </trkpt>
      <trkpt lat="43.14071" lon="-1.29581">
        <ele>826.1</ele>
        <extensions>
          <visugpx:TrkExtension xmlns:visugpx="https://www.visugpx.com/editgpx/">
            <visugpx:node>7</visugpx:node>
            </visugpx:TrkExtension>
        </extensions>
      </trkpt>
      <trkpt lat="43.14068" lon="-1.29605">
        <ele>830.3</ele>
      </trkpt>
      <trkpt lat="43.14074" lon="-1.29624">
        <ele>834.3</ele>
      </trkpt>
      <trkpt lat="43.14073" lon="-1.29644">
        <ele>838</ele>
      </trkpt>
      <trkpt lat="43.14073" lon="-1.29667">
        <ele>841.3</ele>
      </trkpt>
      <trkpt lat="43.14084" lon="-1.29723">
        <ele>851</ele>
      </trkpt>
      <trkpt lat="43.1409" lon="-1.29738">
        <ele>852.6</ele>
      </trkpt>
      <trkpt lat="43.14092" lon="-1.29744">
        <ele>853.5</ele>
      </trkpt>
      <trkpt lat="43.14089" lon="-1.29769">
        <ele>862.1</ele>
      </trkpt>
      <trkpt lat="43.14095" lon="-1.2979">
        <ele>865.6</ele>
      </trkpt>
      <trkpt lat="43.14087" lon="-1.29836">
        <ele>874.6</ele>
      </trkpt>
      <trkpt lat="43.14091" lon="-1.29847">
        <ele>875</ele>
      </trkpt>
      <trkpt lat="43.14084" lon="-1.29868">
        <ele>876.5</ele>
      </trkpt>
      <trkpt lat="43.14076" lon="-1.29903">
        <ele>871.7</ele>
      </trkpt>
      <trkpt lat="43.14085" lon="-1.29908">
        <ele>873.9</ele>
      </trkpt>
      <trkpt lat="43.14093" lon="-1.2992">
        <ele>874.8</ele>
      </trkpt>
      <trkpt lat="43.141" lon="-1.29936">
        <ele>875.2</ele>
      </trkpt>
      <trkpt lat="43.14102" lon="-1.29948">
        <ele>874.9</ele>
      </trkpt>
      <trkpt lat="43.14104" lon="-1.29958">
        <ele>875.4</ele>
      </trkpt>
      <trkpt lat="43.14102" lon="-1.29969">
        <ele>876.1</ele>
      </trkpt>
      <trkpt lat="43.14095" lon="-1.29991">
        <ele>877.1</ele>
      </trkpt>
      <trkpt lat="43.14093" lon="-1.30008">
        <ele>877.5</ele>
      </trkpt>
      <trkpt lat="43.14094" lon="-1.30014">
        <ele>877.8</ele>
      </trkpt>
      <trkpt lat="43.141" lon="-1.30018">
        <ele>878.4</ele>
      </trkpt>
      <trkpt lat="43.14105" lon="-1.30024">
        <ele>879.1</ele>
      </trkpt>
      <trkpt lat="43.14108" lon="-1.30037">
        <ele>880.6</ele>
      </trkpt>
      <trkpt lat="43.14112" lon="-1.30074">
        <ele>886.2</ele>
      </trkpt>
      <trkpt lat="43.14129" lon="-1.30178">
        <ele>901.5</ele>
      </trkpt>
      <trkpt lat="43.1413" lon="-1.3019">
        <ele>903.3</ele>
      </trkpt>
      <trkpt lat="43.14129" lon="-1.30228">
        <ele>907.5</ele>
      </trkpt>
      <trkpt lat="43.14137" lon="-1.30261">
        <ele>910.7</ele>
      </trkpt>
      <trkpt lat="43.14139" lon="-1.30276">
        <ele>912.7</ele>
      </trkpt>
      <trkpt lat="43.14137" lon="-1.30282">
        <ele>914</ele>
      </trkpt>
      <trkpt lat="43.1414" lon="-1.30292">
        <ele>915.6</ele>
      </trkpt>
      <trkpt lat="43.14146" lon="-1.30335">
        <ele>924</ele>
      </trkpt>
      <trkpt lat="43.14145" lon="-1.30374">
        <ele>931.2</ele>
      </trkpt>
      <trkpt lat="43.14151" lon="-1.30439">
        <ele>941.7</ele>
      </trkpt>
      <trkpt lat="43.1416" lon="-1.30499">
        <ele>952.8</ele>
      </trkpt>
      <trkpt lat="43.14182" lon="-1.30569">
        <ele>972.9</ele>
      </trkpt>
      <trkpt lat="43.14189" lon="-1.3058">
        <ele>977.1</ele>
      </trkpt>
      <trkpt lat="43.14192" lon="-1.30607">
        <ele>986.9</ele>
      </trkpt>
      <trkpt lat="43.14191" lon="-1.30618">
        <ele>990.4</ele>
        <extensions>
          <visugpx:TrkExtension xmlns:visugpx="https://www.visugpx.com/editgpx/">
            <visugpx:node>8</visugpx:node>
            </visugpx:TrkExtension>
        </extensions>
      </trkpt>
      <trkpt lat="43.1419" lon="-1.30631">
        <ele>994.3</ele>
      </trkpt>
      <trkpt lat="43.14193" lon="-1.30635">
        <ele>996.4</ele>
      </trkpt>
      <trkpt lat="43.14197" lon="-1.30635">
        <ele>997.2</ele>
      </trkpt>
      <trkpt lat="43.14202" lon="-1.30641">
        <ele>1000</ele>
      </trkpt>
      <trkpt lat="43.14224" lon="-1.30672">
        <ele>1012.9</ele>
      </trkpt>
      <trkpt lat="43.14221" lon="-1.30679">
        <ele>1014.5</ele>
      </trkpt>
      <trkpt lat="43.14211" lon="-1.30692">
        <ele>1016.9</ele>
      </trkpt>
      <trkpt lat="43.14205" lon="-1.30707">
        <ele>1017.8</ele>
      </trkpt>
      <trkpt lat="43.14203" lon="-1.30708">
        <ele>1017.8</ele>
      </trkpt>
      <trkpt lat="43.14196" lon="-1.30709">
        <ele>1017.6</ele>
      </trkpt>
      <trkpt lat="43.1418" lon="-1.3073">
        <ele>1014.7</ele>
      </trkpt>
      <trkpt lat="43.14156" lon="-1.30755">
        <ele>1008.1</ele>
      </trkpt>
      <trkpt lat="43.14137" lon="-1.30759">
        <ele>1002</ele>
      </trkpt>
      <trkpt lat="43.14105" lon="-1.30787">
        <ele>990.2</ele>
      </trkpt>
      <trkpt lat="43.14073" lon="-1.30821">
        <ele>978.5</ele>
      </trkpt>
      <trkpt lat="43.14048" lon="-1.30859">
        <ele>968.4</ele>
      </trkpt>
      <trkpt lat="43.14027" lon="-1.30871">
        <ele>965.9</ele>
      </trkpt>
      <trkpt lat="43.13991" lon="-1.30898">
        <ele>964.4</ele>
      </trkpt>
      <trkpt lat="43.13979" lon="-1.30914">
        <ele>963.3</ele>
      </trkpt>
      <trkpt lat="43.13935" lon="-1.30961">
        <ele>959.5</ele>
      </trkpt>
      <trkpt lat="43.13897" lon="-1.30987">
        <ele>955.7</ele>
      </trkpt>
      <trkpt lat="43.13868" lon="-1.30994">
        <ele>952.6</ele>
      </trkpt>
      <trkpt lat="43.13856" lon="-1.30999">
        <ele>951.5</ele>
      </trkpt>
      <trkpt lat="43.13826" lon="-1.31024">
        <ele>947.7</ele>
      </trkpt>
      <trkpt lat="43.13775" lon="-1.3106">
        <ele>940.9</ele>
      </trkpt>
      <trkpt lat="43.1372" lon="-1.31081">
        <ele>935</ele>
      </trkpt>
      <trkpt lat="43.13567" lon="-1.31151">
        <ele>897.7</ele>
      </trkpt>
      <trkpt lat="43.13554" lon="-1.31159">
        <ele>895</ele>
      </trkpt>
      <trkpt lat="43.13497" lon="-1.31193">
        <ele>886.9</ele>
      </trkpt>
      <trkpt lat="43.13483" lon="-1.31207">
        <ele>884.8</ele>
      </trkpt>
      <trkpt lat="43.13464" lon="-1.3122">
        <ele>884</ele>
      </trkpt>
      <trkpt lat="43.13448" lon="-1.31278">
        <ele>881.3</ele>
      </trkpt>
      <trkpt lat="43.13437" lon="-1.313">
        <ele>880.4</ele>
      </trkpt>
      <trkpt lat="43.13421" lon="-1.31328">
        <ele>878.3</ele>
      </trkpt>
      <trkpt lat="43.13369" lon="-1.31391">
        <ele>874.5</ele>
      </trkpt>
      <trkpt lat="43.13355" lon="-1.31417">
        <ele>873.1</ele>
      </trkpt>
      <trkpt lat="43.13344" lon="-1.31446">
        <ele>871.5</ele>
        <extensions>
          <visugpx:TrkExtension xmlns:visugpx="https://www.visugpx.com/editgpx/">
            <visugpx:node>9</visugpx:node>
            </visugpx:TrkExtension>
        </extensions>
      </trkpt>
      <trkpt lat="43.1334" lon="-1.31456">
        <ele>870.9</ele>
      </trkpt>
      <trkpt lat="43.1333" lon="-1.31477">
        <ele>869.6</ele>
      </trkpt>
      <trkpt lat="43.13318" lon="-1.31495">
        <ele>868.3</ele>
      </trkpt>
      <trkpt lat="43.13301" lon="-1.31515">
        <ele>867.8</ele>
      </trkpt>
      <trkpt lat="43.13293" lon="-1.31527">
        <ele>867.5</ele>
      </trkpt>
      <trkpt lat="43.13288" lon="-1.31539">
        <ele>866.9</ele>
      </trkpt>
      <trkpt lat="43.13286" lon="-1.31555">
        <ele>866.1</ele>
      </trkpt>
      <trkpt lat="43.13287" lon="-1.31569">
        <ele>865.4</ele>
      </trkpt>
      <trkpt lat="43.13283" lon="-1.31572">
        <ele>865.7</ele>
      </trkpt>
      <trkpt lat="43.13242" lon="-1.31597">
        <ele>867.6</ele>
      </trkpt>
      <trkpt lat="43.13234" lon="-1.31609">
        <ele>869.5</ele>
      </trkpt>
      <trkpt lat="43.13233" lon="-1.31616">
        <ele>871.2</ele>
      </trkpt>
      <trkpt lat="43.13235" lon="-1.31625">
        <ele>873.3</ele>
      </trkpt>
      <trkpt lat="43.13242" lon="-1.3164">
        <ele>875.6</ele>
      </trkpt>
      <trkpt lat="43.13246" lon="-1.31656">
        <ele>877.5</ele>
      </trkpt>
      <trkpt lat="43.13248" lon="-1.31677">
        <ele>879.4</ele>
      </trkpt>
      <trkpt lat="43.13249" lon="-1.31706">
        <ele>881.7</ele>
      </trkpt>
      <trkpt lat="43.13245" lon="-1.31748">
        <ele>887.6</ele>
      </trkpt>
      <trkpt lat="43.13229" lon="-1.31823">
        <ele>895.2</ele>
      </trkpt>
      <trkpt lat="43.13234" lon="-1.31861">
        <ele>892.4</ele>
      </trkpt>
      <trkpt lat="43.13232" lon="-1.31881">
        <ele>894.2</ele>
      </trkpt>
      <trkpt lat="43.13218" lon="-1.31934">
        <ele>901.7</ele>
      </trkpt>
      <trkpt lat="43.13208" lon="-1.31962">
        <ele>904.4</ele>
      </trkpt>
      <trkpt lat="43.1317" lon="-1.32049">
        <ele>914.9</ele>
      </trkpt>
      <trkpt lat="43.13167" lon="-1.32067">
        <ele>915.9</ele>
      </trkpt>
      <trkpt lat="43.13165" lon="-1.32125">
        <ele>917.6</ele>
      </trkpt>
      <trkpt lat="43.13168" lon="-1.32188">
        <ele>919.2</ele>
      </trkpt>
      <trkpt lat="43.13163" lon="-1.32243">
        <ele>919.9</ele>
      </trkpt>
      <trkpt lat="43.13168" lon="-1.32248">
        <ele>918.5</ele>
      </trkpt>
      <trkpt lat="43.13172" lon="-1.3226">
        <ele>916.9</ele>
      </trkpt>
      <trkpt lat="43.13173" lon="-1.3227">
        <ele>916.3</ele>
      </trkpt>
      <trkpt lat="43.13177" lon="-1.32273">
        <ele>915.1</ele>
      </trkpt>
      <trkpt lat="43.13177" lon="-1.32286">
        <ele>915.4</ele>
      </trkpt>
      <trkpt lat="43.13184" lon="-1.32292">
        <ele>913.4</ele>
      </trkpt>
      <trkpt lat="43.13189" lon="-1.32303">
        <ele>911.9</ele>
      </trkpt>
      <trkpt lat="43.13189" lon="-1.32309">
        <ele>912.6</ele>
      </trkpt>
      <trkpt lat="43.13191" lon="-1.32317">
        <ele>913.3</ele>
      </trkpt>
      <trkpt lat="43.13212" lon="-1.32331">
        <ele>908.3</ele>
      </trkpt>
      <trkpt lat="43.13236" lon="-1.32365">
        <ele>906.4</ele>
      </trkpt>
      <trkpt lat="43.13251" lon="-1.32393">
        <ele>904</ele>
      </trkpt>
      <trkpt lat="43.13263" lon="-1.32427">
        <ele>901.6</ele>
      </trkpt>
      <trkpt lat="43.13288" lon="-1.32531">
        <ele>889.9</ele>
      </trkpt>
      <trkpt lat="43.13287" lon="-1.32556">
        <ele>889</ele>
      </trkpt>
      <trkpt lat="43.1329" lon="-1.32574">
        <ele>886.1</ele>
      </trkpt>
      <trkpt lat="43.13289" lon="-1.32595">
        <ele>885.1</ele>
      </trkpt>
      <trkpt lat="43.13291" lon="-1.32613">
        <ele>882.7</ele>
      </trkpt>
      <trkpt lat="43.13291" lon="-1.32626">
        <ele>881.5</ele>
      </trkpt>
      <trkpt lat="43.13289" lon="-1.32637">
        <ele>881.5</ele>
      </trkpt>
      <trkpt lat="43.13291" lon="-1.32647">
        <ele>880</ele>
      </trkpt>
      <trkpt lat="43.13291" lon="-1.32655">
        <ele>879.8</ele>
      </trkpt>
      <trkpt lat="43.13295" lon="-1.32666">
        <ele>877.3</ele>
      </trkpt>
      <trkpt lat="43.13296" lon="-1.32677">
        <ele>876.6</ele>
      </trkpt>
      <trkpt lat="43.13306" lon="-1.32703">
        <ele>871.4</ele>
      </trkpt>
      <trkpt lat="43.13308" lon="-1.32719">
        <ele>869.8</ele>
      </trkpt>
      <trkpt lat="43.13318" lon="-1.32747">
        <ele>865.6</ele>
      </trkpt>
      <trkpt lat="43.13319" lon="-1.32771">
        <ele>865.6</ele>
      </trkpt>
      <trkpt lat="43.13322" lon="-1.32786">
        <ele>865.8</ele>
      </trkpt>
      <trkpt lat="43.13328" lon="-1.32791">
        <ele>864.2</ele>
      </trkpt>
      <trkpt lat="43.13345" lon="-1.32793">
        <ele>856.8</ele>
      </trkpt>
      <trkpt lat="43.13355" lon="-1.32803">
        <ele>854.3</ele>
      </trkpt>
      <trkpt lat="43.13376" lon="-1.32837">
        <ele>848.6</ele>
      </trkpt>
      <trkpt lat="43.13396" lon="-1.3288">
        <ele>843.5</ele>
      </trkpt>
      <trkpt lat="43.13439" lon="-1.32921">
        <ele>831.8</ele>
      </trkpt>
      <trkpt lat="43.13448" lon="-1.32929">
        <ele>829.8</ele>
      </trkpt>
      <trkpt lat="43.13497" lon="-1.32949">
        <ele>820.6</ele>
      </trkpt>
      <trkpt lat="43.13517" lon="-1.32964">
        <ele>817.9</ele>
      </trkpt>
      <trkpt lat="43.13526" lon="-1.3297">
        <ele>816.9</ele>
      </trkpt>
      <trkpt lat="43.13536" lon="-1.32975">
        <ele>817.4</ele>
      </trkpt>
      <trkpt lat="43.1355" lon="-1.32977">
        <ele>817.5</ele>
      </trkpt>
      <trkpt lat="43.13578" lon="-1.32974">
        <ele>821.3</ele>
      </trkpt>
      <trkpt lat="43.13596" lon="-1.3297">
        <ele>824.3</ele>
      </trkpt>
      <trkpt lat="43.13617" lon="-1.32973">
        <ele>830.2</ele>
      </trkpt>
      <trkpt lat="43.13627" lon="-1.3298">
        <ele>833.1</ele>
      </trkpt>
      <trkpt lat="43.13649" lon="-1.32991">
        <ele>838.7</ele>
      </trkpt>
      <trkpt lat="43.13672" lon="-1.32992">
        <ele>842.7</ele>
      </trkpt>
      <trkpt lat="43.1368" lon="-1.32997">
        <ele>844.3</ele>
      </trkpt>
      <trkpt lat="43.1369" lon="-1.33001">
        <ele>845.8</ele>
      </trkpt>
      <trkpt lat="43.13696" lon="-1.32997">
        <ele>845.3</ele>
      </trkpt>
      <trkpt lat="43.1371" lon="-1.32994">
        <ele>844.2</ele>
      </trkpt>
      <trkpt lat="43.13737" lon="-1.32999">
        <ele>843</ele>
      </trkpt>
      <trkpt lat="43.13752" lon="-1.32999">
        <ele>840.6</ele>
      </trkpt>
      <trkpt lat="43.13765" lon="-1.32996">
        <ele>839.6</ele>
      </trkpt>
      <trkpt lat="43.13784" lon="-1.32989">
        <ele>837</ele>
        <extensions>
          <visugpx:TrkExtension xmlns:visugpx="https://www.visugpx.com/editgpx/">
            <visugpx:node>10</visugpx:node>
            </visugpx:TrkExtension>
        </extensions>
      </trkpt>
      <trkpt lat="43.13789" lon="-1.32987">
        <ele>836.1</ele>
      </trkpt>
      <trkpt lat="43.13799" lon="-1.32986">
        <ele>835.6</ele>
      </trkpt>
      <trkpt lat="43.13847" lon="-1.32985">
        <ele>831.8</ele>
      </trkpt>
      <trkpt lat="43.13861" lon="-1.32987">
        <ele>831.3</ele>
      </trkpt>
      <trkpt lat="43.13873" lon="-1.32992">
        <ele>830.9</ele>
      </trkpt>
      <trkpt lat="43.13892" lon="-1.33004">
        <ele>830</ele>
      </trkpt>
      <trkpt lat="43.13908" lon="-1.33022">
        <ele>829.4</ele>
      </trkpt>
      <trkpt lat="43.13917" lon="-1.33036">
        <ele>829.6</ele>
      </trkpt>
      <trkpt lat="43.13934" lon="-1.33066">
        <ele>827</ele>
      </trkpt>
      <trkpt lat="43.13961" lon="-1.33103">
        <ele>822.1</ele>
      </trkpt>
      <trkpt lat="43.13971" lon="-1.33126">
        <ele>821.9</ele>
      </trkpt>
      <trkpt lat="43.13975" lon="-1.33132">
        <ele>821.9</ele>
      </trkpt>
      <trkpt lat="43.13983" lon="-1.33136">
        <ele>821.5</ele>
      </trkpt>
      <trkpt lat="43.14045" lon="-1.33144">
        <ele>816.7</ele>
      </trkpt>
      <trkpt lat="43.14086" lon="-1.33142">
        <ele>809.7</ele>
      </trkpt>
      <trkpt lat="43.14101" lon="-1.33144">
        <ele>807</ele>
      </trkpt>
      <trkpt lat="43.1411" lon="-1.33148">
        <ele>806.2</ele>
      </trkpt>
      <trkpt lat="43.14118" lon="-1.33153">
        <ele>804.9</ele>
      </trkpt>
      <trkpt lat="43.14145" lon="-1.33166">
        <ele>800.3</ele>
      </trkpt>
      <trkpt lat="43.14159" lon="-1.33174">
        <ele>796.7</ele>
      </trkpt>
      <trkpt lat="43.14186" lon="-1.33203">
        <ele>790.6</ele>
      </trkpt>
      <trkpt lat="43.14195" lon="-1.33215">
        <ele>788</ele>
      </trkpt>
      <trkpt lat="43.14206" lon="-1.33242">
        <ele>784.7</ele>
      </trkpt>
      <trkpt lat="43.14227" lon="-1.33283">
        <ele>777.4</ele>
      </trkpt>
      <trkpt lat="43.14231" lon="-1.33302">
        <ele>776.4</ele>
        <extensions>
          <visugpx:TrkExtension xmlns:visugpx="https://www.visugpx.com/editgpx/">
            <visugpx:node>11</visugpx:node>
            </visugpx:TrkExtension>
        </extensions>
      </trkpt>
      <trkpt lat="43.14247" lon="-1.33371">
        <ele>771.2</ele>
      </trkpt>
      <trkpt lat="43.14254" lon="-1.33444">
        <ele>766</ele>
      </trkpt>
      <trkpt lat="43.14262" lon="-1.33481">
        <ele>760.2</ele>
      </trkpt>
      <trkpt lat="43.14269" lon="-1.33495">
        <ele>757.5</ele>
      </trkpt>
      <trkpt lat="43.14278" lon="-1.33503">
        <ele>754.8</ele>
      </trkpt>
      <trkpt lat="43.14294" lon="-1.33513">
        <ele>751.9</ele>
      </trkpt>
      <trkpt lat="43.14304" lon="-1.33517">
        <ele>749.7</ele>
      </trkpt>
      <trkpt lat="43.14315" lon="-1.33519">
        <ele>747.7</ele>
      </trkpt>
      <trkpt lat="43.14359" lon="-1.33519">
        <ele>738.3</ele>
      </trkpt>
      <trkpt lat="43.14396" lon="-1.33509">
        <ele>731.4</ele>
      </trkpt>
      <trkpt lat="43.14413" lon="-1.33502">
        <ele>729.3</ele>
      </trkpt>
      <trkpt lat="43.14438" lon="-1.33512">
        <ele>728.5</ele>
      </trkpt>
      <trkpt lat="43.14469" lon="-1.33521">
        <ele>731.5</ele>
      </trkpt>
      <trkpt lat="43.1448" lon="-1.33516">
        <ele>731.3</ele>
      </trkpt>
      <trkpt lat="43.14502" lon="-1.33501">
        <ele>731.4</ele>
      </trkpt>
      <trkpt lat="43.14567" lon="-1.33486">
        <ele>737.9</ele>
      </trkpt>
      <trkpt lat="43.14585" lon="-1.33474">
        <ele>737.5</ele>
      </trkpt>
      <trkpt lat="43.14601" lon="-1.33468">
        <ele>736.3</ele>
      </trkpt>
      <trkpt lat="43.14618" lon="-1.33457">
        <ele>735.7</ele>
      </trkpt>
      <trkpt lat="43.14633" lon="-1.33439">
        <ele>736.3</ele>
      </trkpt>
      <trkpt lat="43.14651" lon="-1.33409">
        <ele>738.4</ele>
      </trkpt>
      <trkpt lat="43.14667" lon="-1.33376">
        <ele>740.7</ele>
      </trkpt>
      <trkpt lat="43.1468" lon="-1.33355">
        <ele>742.3</ele>
      </trkpt>
      <trkpt lat="43.14694" lon="-1.3334">
        <ele>742.8</ele>
      </trkpt>
      <trkpt lat="43.14707" lon="-1.33337">
        <ele>741.9</ele>
      </trkpt>
      <trkpt lat="43.1471" lon="-1.33334">
        <ele>740.7</ele>
      </trkpt>
      <trkpt lat="43.14719" lon="-1.33337">
        <ele>741.8</ele>
      </trkpt>
      <trkpt lat="43.14731" lon="-1.33336">
        <ele>740.9</ele>
      </trkpt>
      <trkpt lat="43.1474" lon="-1.33331">
        <ele>738.4</ele>
      </trkpt>
      <trkpt lat="43.14767" lon="-1.33309">
        <ele>728.4</ele>
      </trkpt>
      <trkpt lat="43.14791" lon="-1.33306">
        <ele>726.2</ele>
      </trkpt>
      <trkpt lat="43.14799" lon="-1.333">
        <ele>725.1</ele>
      </trkpt>
      <trkpt lat="43.14802" lon="-1.33278">
        <ele>722.7</ele>
      </trkpt>
      <trkpt lat="43.14807" lon="-1.33264">
        <ele>723.2</ele>
      </trkpt>
      <trkpt lat="43.14809" lon="-1.33246">
        <ele>721.8</ele>
      </trkpt>
      <trkpt lat="43.14817" lon="-1.33218">
        <ele>720</ele>
      </trkpt>
      <trkpt lat="43.1482" lon="-1.33192">
        <ele>717.3</ele>
      </trkpt>
      <trkpt lat="43.14819" lon="-1.33164">
        <ele>716.4</ele>
      </trkpt>
      <trkpt lat="43.14813" lon="-1.33105">
        <ele>718.4</ele>
      </trkpt>
      <trkpt lat="43.14802" lon="-1.33047">
        <ele>717.4</ele>
      </trkpt>
      <trkpt lat="43.14801" lon="-1.33025">
        <ele>717.4</ele>
      </trkpt>
      <trkpt lat="43.14805" lon="-1.32993">
        <ele>717.7</ele>
      </trkpt>
      <trkpt lat="43.14811" lon="-1.32976">
        <ele>718.7</ele>
      </trkpt>
      <trkpt lat="43.14818" lon="-1.32946">
        <ele>716.5</ele>
      </trkpt>
      <trkpt lat="43.14837" lon="-1.32909">
        <ele>717.2</ele>
      </trkpt>
      <trkpt lat="43.14849" lon="-1.32887">
        <ele>715.1</ele>
      </trkpt>
      <trkpt lat="43.14888" lon="-1.3284">
        <ele>711.4</ele>
      </trkpt>
      <trkpt lat="43.14898" lon="-1.32834">
        <ele>710.9</ele>
      </trkpt>
      <trkpt lat="43.1492" lon="-1.32827">
        <ele>711</ele>
      </trkpt>
      <trkpt lat="43.14956" lon="-1.32802">
        <ele>697.7</ele>
      </trkpt>
      <trkpt lat="43.15016" lon="-1.32773">
        <ele>683.8</ele>
      </trkpt>
      <trkpt lat="43.1503" lon="-1.32769">
        <ele>681.4</ele>
      </trkpt>
      <trkpt lat="43.15056" lon="-1.32769">
        <ele>674.9</ele>
      </trkpt>
      <trkpt lat="43.15068" lon="-1.32776">
        <ele>670.2</ele>
      </trkpt>
      <trkpt lat="43.1509" lon="-1.3281">
        <ele>670.8</ele>
      </trkpt>
      <trkpt lat="43.15109" lon="-1.32826">
        <ele>668.1</ele>
      </trkpt>
      <trkpt lat="43.15118" lon="-1.32838">
        <ele>669</ele>
      </trkpt>
      <trkpt lat="43.15136" lon="-1.32853">
        <ele>667.6</ele>
      </trkpt>
      <trkpt lat="43.15147" lon="-1.32868">
        <ele>669.9</ele>
      </trkpt>
      <trkpt lat="43.15159" lon="-1.32879">
        <ele>671.1</ele>
      </trkpt>
      <trkpt lat="43.15226" lon="-1.32885">
        <ele>667.5</ele>
      </trkpt>
      <trkpt lat="43.15249" lon="-1.32883">
        <ele>666.9</ele>
      </trkpt>
      <trkpt lat="43.15258" lon="-1.32878">
        <ele>666.8</ele>
        <extensions>
          <visugpx:TrkExtension xmlns:visugpx="https://www.visugpx.com/editgpx/">
            <visugpx:node>12</visugpx:node>
            </visugpx:TrkExtension>
        </extensions>
      </trkpt>
      <trkpt lat="43.15268" lon="-1.32873">
        <ele>666.7</ele>
      </trkpt>
      <trkpt lat="43.15279" lon="-1.3287">
        <ele>667.3</ele>
      </trkpt>
      <trkpt lat="43.1531" lon="-1.32869">
        <ele>669.4</ele>
      </trkpt>
      <trkpt lat="43.1532" lon="-1.32872">
        <ele>670.2</ele>
      </trkpt>
      <trkpt lat="43.15329" lon="-1.32872">
        <ele>669.6</ele>
      </trkpt>
      <trkpt lat="43.15338" lon="-1.32869">
        <ele>668.5</ele>
      </trkpt>
      <trkpt lat="43.15347" lon="-1.32868">
        <ele>668.8</ele>
      </trkpt>
      <trkpt lat="43.15394" lon="-1.32855">
        <ele>666.6</ele>
      </trkpt>
      <trkpt lat="43.15427" lon="-1.3285">
        <ele>664.4</ele>
      </trkpt>
      <trkpt lat="43.15479" lon="-1.32832">
        <ele>658.9</ele>
      </trkpt>
      <trkpt lat="43.15498" lon="-1.32825">
        <ele>657.2</ele>
      </trkpt>
      <trkpt lat="43.15556" lon="-1.32793">
        <ele>650.9</ele>
      </trkpt>
      <trkpt lat="43.15603" lon="-1.32783">
        <ele>646.7</ele>
      </trkpt>
      <trkpt lat="43.15609" lon="-1.32782">
        <ele>646.2</ele>
      </trkpt>
      <trkpt lat="43.15661" lon="-1.32765">
        <ele>639.1</ele>
      </trkpt>
      <trkpt lat="43.15682" lon="-1.3276">
        <ele>633.7</ele>
      </trkpt>
      <trkpt lat="43.15696" lon="-1.32767">
        <ele>632.8</ele>
      </trkpt>
      <trkpt lat="43.15707" lon="-1.3277">
        <ele>633</ele>
      </trkpt>
      <trkpt lat="43.15718" lon="-1.32766">
        <ele>631.3</ele>
      </trkpt>
      <trkpt lat="43.1574" lon="-1.32747">
        <ele>627.9</ele>
      </trkpt>
      <trkpt lat="43.1575" lon="-1.32747">
        <ele>628.7</ele>
      </trkpt>
      <trkpt lat="43.15754" lon="-1.3275">
        <ele>627.3</ele>
      </trkpt>
      <trkpt lat="43.1576" lon="-1.32789">
        <ele>629.3</ele>
      </trkpt>
      <trkpt lat="43.15763" lon="-1.32821">
        <ele>632</ele>
      </trkpt>
      <trkpt lat="43.15769" lon="-1.32849">
        <ele>632</ele>
      </trkpt>
      <trkpt lat="43.15785" lon="-1.32884">
        <ele>630.1</ele>
      </trkpt>
      <trkpt lat="43.15791" lon="-1.32903">
        <ele>629.5</ele>
      </trkpt>
      <trkpt lat="43.15814" lon="-1.32961">
        <ele>624.4</ele>
      </trkpt>
      <trkpt lat="43.1582" lon="-1.32979">
        <ele>623.2</ele>
      </trkpt>
      <trkpt lat="43.15825" lon="-1.33007">
        <ele>623.1</ele>
      </trkpt>
      <trkpt lat="43.15839" lon="-1.33046">
        <ele>621.8</ele>
      </trkpt>
      <trkpt lat="43.15846" lon="-1.33084">
        <ele>621.5</ele>
      </trkpt>
      <trkpt lat="43.15849" lon="-1.33099">
        <ele>621.5</ele>
      </trkpt>
      <trkpt lat="43.15858" lon="-1.33147">
        <ele>620.5</ele>
      </trkpt>
      <trkpt lat="43.15866" lon="-1.33191">
        <ele>619.1</ele>
      </trkpt>
      <trkpt lat="43.1588" lon="-1.33239">
        <ele>615.2</ele>
      </trkpt>
      <trkpt lat="43.1589" lon="-1.3327">
        <ele>611.6</ele>
      </trkpt>
      <trkpt lat="43.15898" lon="-1.33303">
        <ele>608.7</ele>
      </trkpt>
      <trkpt lat="43.15917" lon="-1.33353">
        <ele>600.9</ele>
      </trkpt>
      <trkpt lat="43.15928" lon="-1.33428">
        <ele>594.3</ele>
      </trkpt>
      <trkpt lat="43.15939" lon="-1.33465">
        <ele>591</ele>
      </trkpt>
      <trkpt lat="43.15952" lon="-1.33491">
        <ele>588.3</ele>
      </trkpt>
      <trkpt lat="43.15966" lon="-1.33508">
        <ele>584.9</ele>
      </trkpt>
      <trkpt lat="43.15984" lon="-1.33535">
        <ele>580.4</ele>
      </trkpt>
      <trkpt lat="43.15991" lon="-1.33549">
        <ele>578.7</ele>
      </trkpt>
      <trkpt lat="43.15996" lon="-1.33554">
        <ele>577.2</ele>
      </trkpt>
      <trkpt lat="43.16006" lon="-1.33557">
        <ele>573.6</ele>
      </trkpt>
      <trkpt lat="43.16018" lon="-1.33568">
        <ele>568.4</ele>
      </trkpt>
      <trkpt lat="43.16026" lon="-1.33584">
        <ele>564.9</ele>
      </trkpt>
      <trkpt lat="43.16031" lon="-1.33591">
        <ele>564.7</ele>
      </trkpt>
      <trkpt lat="43.1604" lon="-1.33596">
        <ele>562.6</ele>
        <extensions>
          <visugpx:TrkExtension xmlns:visugpx="https://www.visugpx.com/editgpx/">
            <visugpx:node>13</visugpx:node>
            </visugpx:TrkExtension>
        </extensions>
      </trkpt>
      <trkpt lat="43.16055" lon="-1.33604">
        <ele>559.2</ele>
      </trkpt>
      <trkpt lat="43.16064" lon="-1.33611">
        <ele>557.3</ele>
      </trkpt>
      <trkpt lat="43.16085" lon="-1.33637">
        <ele>553.1</ele>
      </trkpt>
      <trkpt lat="43.16092" lon="-1.33642">
        <ele>551.7</ele>
      </trkpt>
      <trkpt lat="43.16168" lon="-1.33691">
        <ele>537.9</ele>
      </trkpt>
      <trkpt lat="43.16183" lon="-1.33696">
        <ele>536.4</ele>
      </trkpt>
      <trkpt lat="43.16241" lon="-1.33691">
        <ele>528.1</ele>
      </trkpt>
      <trkpt lat="43.1628" lon="-1.33693">
        <ele>523.5</ele>
      </trkpt>
      <trkpt lat="43.1629" lon="-1.33692">
        <ele>522.4</ele>
      </trkpt>
      <trkpt lat="43.16304" lon="-1.33706">
        <ele>519.6</ele>
      </trkpt>
      <trkpt lat="43.16306" lon="-1.33714">
        <ele>518.1</ele>
      </trkpt>
      <trkpt lat="43.16303" lon="-1.33731">
        <ele>516.2</ele>
      </trkpt>
      <trkpt lat="43.16293" lon="-1.33761">
        <ele>513.3</ele>
      </trkpt>
      <trkpt lat="43.16277" lon="-1.338">
        <ele>509.7</ele>
      </trkpt>
      <trkpt lat="43.16271" lon="-1.33817">
        <ele>508.6</ele>
      </trkpt>
      <trkpt lat="43.16268" lon="-1.33839">
        <ele>505.8</ele>
      </trkpt>
      <trkpt lat="43.16269" lon="-1.33859">
        <ele>502.7</ele>
      </trkpt>
      <trkpt lat="43.16272" lon="-1.33881">
        <ele>499.7</ele>
      </trkpt>
      <trkpt lat="43.16282" lon="-1.33896">
        <ele>494.6</ele>
      </trkpt>
      <trkpt lat="43.16307" lon="-1.33929">
        <ele>483.3</ele>
      </trkpt>
      <trkpt lat="43.16313" lon="-1.33936">
        <ele>481.2</ele>
      </trkpt>
      <trkpt lat="43.16347" lon="-1.33973">
        <ele>469.4</ele>
      </trkpt>
      <trkpt lat="43.16406" lon="-1.34047">
        <ele>449.7</ele>
      </trkpt>
      <trkpt lat="43.1641" lon="-1.34058">
        <ele>447.2</ele>
      </trkpt>
      <trkpt lat="43.16434" lon="-1.34119">
        <ele>436.4</ele>
      </trkpt>
      <trkpt lat="43.16447" lon="-1.34139">
        <ele>433.4</ele>
      </trkpt>
      <trkpt lat="43.16467" lon="-1.34155">
        <ele>430.8</ele>
      </trkpt>
      <trkpt lat="43.16484" lon="-1.34164">
        <ele>427.7</ele>
      </trkpt>
      <trkpt lat="43.16532" lon="-1.34165">
        <ele>422.9</ele>
      </trkpt>
      <trkpt lat="43.16574" lon="-1.34159">
        <ele>417.3</ele>
      </trkpt>
      <trkpt lat="43.16599" lon="-1.34159">
        <ele>412.1</ele>
      </trkpt>
      <trkpt lat="43.16631" lon="-1.34166">
        <ele>402.9</ele>
      </trkpt>
      <trkpt lat="43.16637" lon="-1.34169">
        <ele>400.7</ele>
      </trkpt>
      <trkpt lat="43.16663" lon="-1.34184">
        <ele>390.8</ele>
      </trkpt>
      <trkpt lat="43.16678" lon="-1.34187">
        <ele>386.3</ele>
      </trkpt>
      <trkpt lat="43.16685" lon="-1.3419">
        <ele>383.7</ele>
      </trkpt>
      <trkpt lat="43.16714" lon="-1.34192">
        <ele>375.1</ele>
      </trkpt>
      <trkpt lat="43.16726" lon="-1.34196">
        <ele>370.9</ele>
      </trkpt>
      <trkpt lat="43.16729" lon="-1.34202">
        <ele>369.3</ele>
      </trkpt>
      <trkpt lat="43.16733" lon="-1.34234">
        <ele>363.5</ele>
      </trkpt>
      <trkpt lat="43.16736" lon="-1.34241">
        <ele>362</ele>
      </trkpt>
      <trkpt lat="43.16756" lon="-1.34267">
        <ele>356.7</ele>
      </trkpt>
      <trkpt lat="43.16768" lon="-1.3429">
        <ele>354.2</ele>
      </trkpt>
      <trkpt lat="43.16785" lon="-1.34305">
        <ele>351.2</ele>
      </trkpt>
      <trkpt lat="43.16823" lon="-1.34346">
        <ele>345.1</ele>
      </trkpt>
      <trkpt lat="43.16832" lon="-1.34362">
        <ele>345.2</ele>
      </trkpt>
      <trkpt lat="43.16843" lon="-1.34367">
        <ele>343.9</ele>
      </trkpt>
      <trkpt lat="43.16862" lon="-1.34372">
        <ele>341.7</ele>
      </trkpt>
      <trkpt lat="43.16893" lon="-1.34376">
        <ele>339.5</ele>
      </trkpt>
      <trkpt lat="43.16928" lon="-1.34374">
        <ele>333.7</ele>
      </trkpt>
      <trkpt lat="43.16959" lon="-1.34368">
        <ele>327.2</ele>
      </trkpt>
      <trkpt lat="43.17017" lon="-1.3435">
        <ele>313.6</ele>
      </trkpt>
      <trkpt lat="43.17041" lon="-1.34348">
        <ele>307.2</ele>
      </trkpt>
      <trkpt lat="43.17106" lon="-1.34348">
        <ele>289.4</ele>
        <extensions>
          <visugpx:TrkExtension xmlns:visugpx="https://www.visugpx.com/editgpx/">
            <visugpx:node>14</visugpx:node>
            </visugpx:TrkExtension>
        </extensions>
      </trkpt>
      <trkpt lat="43.17109" lon="-1.34348">
        <ele>288.7</ele>
      </trkpt>
      <trkpt lat="43.17122" lon="-1.34349">
        <ele>285.3</ele>
      </trkpt>
      <trkpt lat="43.17134" lon="-1.34341">
        <ele>281.1</ele>
      </trkpt>
      <trkpt lat="43.17145" lon="-1.34336">
        <ele>278.1</ele>
      </trkpt>
      <trkpt lat="43.17154" lon="-1.34334">
        <ele>276.3</ele>
      </trkpt>
      <trkpt lat="43.17161" lon="-1.34318">
        <ele>272.8</ele>
      </trkpt>
      <trkpt lat="43.17169" lon="-1.34311">
        <ele>271</ele>
      </trkpt>
      <trkpt lat="43.17197" lon="-1.34268">
        <ele>258.9</ele>
      </trkpt>
      <trkpt lat="43.17285" lon="-1.34185">
        <ele>238.3</ele>
      </trkpt>
      <trkpt lat="43.17299" lon="-1.34182">
        <ele>236.5</ele>
      </trkpt>
      <trkpt lat="43.173" lon="-1.34181">
        <ele>236.4</ele>
      </trkpt>
      <trkpt lat="43.17335" lon="-1.34151">
        <ele>234.7</ele>
      </trkpt>
      <trkpt lat="43.17367" lon="-1.34143">
        <ele>229.1</ele>
      </trkpt>
      <trkpt lat="43.17391" lon="-1.34129">
        <ele>226.5</ele>
      </trkpt>
      <trkpt lat="43.17399" lon="-1.34117">
        <ele>225.8</ele>
      </trkpt>
      <trkpt lat="43.17406" lon="-1.341">
        <ele>223.7</ele>
      </trkpt>
      <trkpt lat="43.17416" lon="-1.34085">
        <ele>221.1</ele>
      </trkpt>
      <trkpt lat="43.17438" lon="-1.34063">
        <ele>215.5</ele>
      </trkpt>
      <trkpt lat="43.17453" lon="-1.34058">
        <ele>213.7</ele>
      </trkpt>
      <trkpt lat="43.17467" lon="-1.34049">
        <ele>208.7</ele>
      </trkpt>
      <trkpt lat="43.1754" lon="-1.34029">
        <ele>188.9</ele>
      </trkpt>
      <trkpt lat="43.17554" lon="-1.3402">
        <ele>186.1</ele>
      </trkpt>
      <trkpt lat="43.17567" lon="-1.34023">
        <ele>185.7</ele>
      </trkpt>
      <trkpt lat="43.17581" lon="-1.34025">
        <ele>184.4</ele>
      </trkpt>
      <trkpt lat="43.17586" lon="-1.34042">
        <ele>184.2</ele>
      </trkpt>
      <trkpt lat="43.17588" lon="-1.3405">
        <ele>183.4</ele>
      </trkpt>
      <trkpt lat="43.17584" lon="-1.34077">
        <ele>184.1</ele>
      </trkpt>
      <trkpt lat="43.1756" lon="-1.34128">
        <ele>182.2</ele>
      </trkpt>
      <trkpt lat="43.17557" lon="-1.34137">
        <ele>180.2</ele>
      </trkpt>
      <trkpt lat="43.17561" lon="-1.34143">
        <ele>177.8</ele>
      </trkpt>
      <trkpt lat="43.17566" lon="-1.3414">
        <ele>177.1</ele>
      </trkpt>
      <trkpt lat="43.17594" lon="-1.34104">
        <ele>173.4</ele>
      </trkpt>
      <trkpt lat="43.17609" lon="-1.34078">
        <ele>169.8</ele>
      </trkpt>
      <trkpt lat="43.17647" lon="-1.33999">
        <ele>159.4</ele>
      </trkpt>
      <trkpt lat="43.17651" lon="-1.3398">
        <ele>158.6</ele>
      </trkpt>
      <trkpt lat="43.17656" lon="-1.33966">
        <ele>159</ele>
      </trkpt>
      <trkpt lat="43.17662" lon="-1.33969">
        <ele>158.9</ele>
      </trkpt>
      <trkpt lat="43.17669" lon="-1.33973">
        <ele>158.5</ele>
      </trkpt>
      <trkpt lat="43.17676" lon="-1.33976">
        <ele>156.9</ele>
      </trkpt>
      <trkpt lat="43.17677" lon="-1.33977">
        <ele>156.7</ele>
      </trkpt>
      <trkpt lat="43.17678" lon="-1.3398">
        <ele>156.4</ele>
      </trkpt>
      <trkpt lat="43.17689" lon="-1.34034">
        <ele>153.9</ele>
      </trkpt>
      <trkpt lat="43.177" lon="-1.34073">
        <ele>155</ele>
      </trkpt>
      <trkpt lat="43.17705" lon="-1.34107">
        <ele>154.9</ele>
      </trkpt>
      <trkpt lat="43.17695" lon="-1.34187">
        <ele>154.5</ele>
      </trkpt>
      <trkpt lat="43.17716" lon="-1.3419">
        <ele>152.6</ele>
      </trkpt>
      <trkpt lat="43.17748" lon="-1.34197">
        <ele>154.7</ele>
      </trkpt>
      <trkpt lat="43.17759" lon="-1.34198">
        <ele>155</ele>
      </trkpt>
      <trkpt lat="43.1777" lon="-1.34195">
        <ele>155</ele>
      </trkpt>
      <trkpt lat="43.17777" lon="-1.34191">
        <ele>155</ele>
      </trkpt>
      <trkpt lat="43.17851" lon="-1.34102">
        <ele>154.2</ele>
      </trkpt>
      <trkpt lat="43.17858" lon="-1.34093">
        <ele>154</ele>
      </trkpt>
      <trkpt lat="43.17863" lon="-1.34087">
        <ele>154</ele>
      </trkpt>
      <trkpt lat="43.17869" lon="-1.34079">
        <ele>154</ele>
      </trkpt>
      <trkpt lat="43.17883" lon="-1.34063">
        <ele>154</ele>
      </trkpt>
      <trkpt lat="43.17898" lon="-1.34045">
        <ele>153.7</ele>
      </trkpt>
      <trkpt lat="43.17903" lon="-1.3404">
        <ele>153.5</ele>
      </trkpt>
      <trkpt lat="43.17905" lon="-1.34039">
        <ele>153.4</ele>
      </trkpt>
      <trkpt lat="43.17906" lon="-1.34037">
        <ele>153.4</ele>
      </trkpt>
      <trkpt lat="43.17924" lon="-1.3402">
        <ele>153</ele>
      </trkpt>
      <trkpt lat="43.17936" lon="-1.34009">
        <ele>153</ele>
      </trkpt>
      <trkpt lat="43.17941" lon="-1.34005">
        <ele>153</ele>
      </trkpt>
      <trkpt lat="43.17945" lon="-1.34014">
        <ele>153</ele>
      </trkpt>
      <trkpt lat="43.17955" lon="-1.34025">
        <ele>153.3</ele>
      </trkpt>
      <trkpt lat="43.17974" lon="-1.34036">
        <ele>154</ele>
      </trkpt>
      <trkpt lat="43.17976" lon="-1.34037">
        <ele>153.9</ele>
      </trkpt>
      <trkpt lat="43.18004" lon="-1.3406">
        <ele>154.5</ele>
      </trkpt>
      <trkpt lat="43.18011" lon="-1.34064">
        <ele>154.9</ele>
      </trkpt>
      <trkpt lat="43.18026" lon="-1.34066">
        <ele>155.1</ele>
      </trkpt>
      <trkpt lat="43.18062" lon="-1.34067">
        <ele>157</ele>
      </trkpt>
      <trkpt lat="43.1808" lon="-1.34075">
        <ele>157.5</ele>
      </trkpt>
      <trkpt lat="43.18097" lon="-1.34086">
        <ele>159.4</ele>
      </trkpt>
      <trkpt lat="43.18103" lon="-1.34087">
        <ele>159.9</ele>
      </trkpt>
      <trkpt lat="43.1811" lon="-1.34082">
        <ele>159.8</ele>
      </trkpt>
      <trkpt lat="43.18126" lon="-1.34062">
        <ele>161.7</ele>
      </trkpt>
      <trkpt lat="43.18153" lon="-1.34043">
        <ele>164.3</ele>
      </trkpt>
      <trkpt lat="43.18159" lon="-1.34033">
        <ele>164</ele>
      </trkpt>
      <trkpt lat="43.18163" lon="-1.34019">
        <ele>163.7</ele>
      </trkpt>
      <trkpt lat="43.18166" lon="-1.34017">
        <ele>163.9</ele>
      </trkpt>
      <trkpt lat="43.1817" lon="-1.34018">
        <ele>164.2</ele>
      </trkpt>
      <trkpt lat="43.18176" lon="-1.34027">
        <ele>164.7</ele>
      </trkpt>
      <trkpt lat="43.18233" lon="-1.34106">
        <ele>170.9</ele>
      </trkpt>
      <trkpt lat="43.18236" lon="-1.34113">
        <ele>171.7</ele>
      </trkpt>
      <trkpt lat="43.18238" lon="-1.34121">
        <ele>172.5</ele>
      </trkpt>
      <trkpt lat="43.18236" lon="-1.34127">
        <ele>172.9</ele>
      </trkpt>
      <trkpt lat="43.18233" lon="-1.34132">
        <ele>173.2</ele>
      </trkpt>
      <trkpt lat="43.18213" lon="-1.34152">
        <ele>174</ele>
      </trkpt>
      <trkpt lat="43.18204" lon="-1.34167">
        <ele>174.4</ele>
      </trkpt>
      <trkpt lat="43.18201" lon="-1.3418">
        <ele>174.9</ele>
      </trkpt>
      <trkpt lat="43.18199" lon="-1.34187">
        <ele>175.1</ele>
      </trkpt>
      <trkpt lat="43.18178" lon="-1.34292">
        <ele>180.2</ele>
      </trkpt>
      <trkpt lat="43.18178" lon="-1.3432">
        <ele>180.9</ele>
      </trkpt>
      <trkpt lat="43.18189" lon="-1.34362">
        <ele>182.4</ele>
      </trkpt>
      <trkpt lat="43.18206" lon="-1.34403">
        <ele>184.8</ele>
      </trkpt>
      <trkpt lat="43.18222" lon="-1.34417">
        <ele>187.9</ele>
      </trkpt>
      <trkpt lat="43.18241" lon="-1.34425">
        <ele>190.5</ele>
      </trkpt>
      <trkpt lat="43.18259" lon="-1.3443">
        <ele>193.9</ele>
      </trkpt>
      <trkpt lat="43.18273" lon="-1.34443">
        <ele>196.3</ele>
      </trkpt>
      <trkpt lat="43.18282" lon="-1.34465">
        <ele>196.5</ele>
      </trkpt>
      <trkpt lat="43.18295" lon="-1.34484">
        <ele>199.6</ele>
      </trkpt>
      <trkpt lat="43.18332" lon="-1.34487">
        <ele>201.9</ele>
      </trkpt>
      <trkpt lat="43.18366" lon="-1.34477">
        <ele>204.3</ele>
      </trkpt>
      <trkpt lat="43.18389" lon="-1.34478">
        <ele>206.4</ele>
      </trkpt>
      <trkpt lat="43.18403" lon="-1.34481">
        <ele>208.1</ele>
      </trkpt>
      <trkpt lat="43.18447" lon="-1.34499">
        <ele>209.3</ele>
      </trkpt>
      <trkpt lat="43.18465" lon="-1.34502">
        <ele>210.5</ele>
      </trkpt>
      <trkpt lat="43.18482" lon="-1.34499">
        <ele>212.1</ele>
      </trkpt>
      <trkpt lat="43.18518" lon="-1.34481">
        <ele>217</ele>
      </trkpt>
      <trkpt lat="43.1853" lon="-1.34478">
        <ele>218.7</ele>
        <extensions>
          <visugpx:TrkExtension xmlns:visugpx="https://www.visugpx.com/editgpx/">
            <visugpx:node>15</visugpx:node>
            </visugpx:TrkExtension>
        </extensions>
      </trkpt>
      <trkpt lat="43.18532" lon="-1.34478">
        <ele>218.9</ele>
      </trkpt>
      <trkpt lat="43.18541" lon="-1.3448">
        <ele>220</ele>
      </trkpt>
      <trkpt lat="43.18558" lon="-1.34488">
        <ele>222.2</ele>
      </trkpt>
      <trkpt lat="43.18619" lon="-1.34493">
        <ele>224.9</ele>
      </trkpt>
      <trkpt lat="43.18697" lon="-1.3451">
        <ele>231.3</ele>
      </trkpt>
      <trkpt lat="43.18711" lon="-1.34519">
        <ele>233</ele>
      </trkpt>
      <trkpt lat="43.1872" lon="-1.34536">
        <ele>234.9</ele>
      </trkpt>
      <trkpt lat="43.18734" lon="-1.34584">
        <ele>237.5</ele>
      </trkpt>
      <trkpt lat="43.18736" lon="-1.34618">
        <ele>241.5</ele>
      </trkpt>
      <trkpt lat="43.1873" lon="-1.34636">
        <ele>244.3</ele>
      </trkpt>
      <trkpt lat="43.18715" lon="-1.34663">
        <ele>248.5</ele>
      </trkpt>
      <trkpt lat="43.18697" lon="-1.34686">
        <ele>247.8</ele>
      </trkpt>
      <trkpt lat="43.18639" lon="-1.34747">
        <ele>249.3</ele>
      </trkpt>
      <trkpt lat="43.18608" lon="-1.3479">
        <ele>251.6</ele>
      </trkpt>
      <trkpt lat="43.18597" lon="-1.34812">
        <ele>253.2</ele>
      </trkpt>
      <trkpt lat="43.18585" lon="-1.3484">
        <ele>253.6</ele>
      </trkpt>
      <trkpt lat="43.18578" lon="-1.34869">
        <ele>253.1</ele>
      </trkpt>
      <trkpt lat="43.18578" lon="-1.34881">
        <ele>252.7</ele>
      </trkpt>
      <trkpt lat="43.18586" lon="-1.34918">
        <ele>253.3</ele>
      </trkpt>
      <trkpt lat="43.18589" lon="-1.34942">
        <ele>254.9</ele>
      </trkpt>
      <trkpt lat="43.18591" lon="-1.34951">
        <ele>256</ele>
      </trkpt>
      <trkpt lat="43.18599" lon="-1.3495">
        <ele>257.6</ele>
      </trkpt>
      <trkpt lat="43.18611" lon="-1.34969">
        <ele>263.4</ele>
      </trkpt>
      <trkpt lat="43.18622" lon="-1.34995">
        <ele>269.3</ele>
      </trkpt>
      <trkpt lat="43.18639" lon="-1.35043">
        <ele>279.3</ele>
      </trkpt>
      <trkpt lat="43.18664" lon="-1.35082">
        <ele>287.8</ele>
      </trkpt>
      <trkpt lat="43.1867" lon="-1.35087">
        <ele>289</ele>
      </trkpt>
      <trkpt lat="43.18686" lon="-1.35097">
        <ele>291</ele>
      </trkpt>
      <trkpt lat="43.18696" lon="-1.35102">
        <ele>291.3</ele>
      </trkpt>
      <trkpt lat="43.18727" lon="-1.35116">
        <ele>295.2</ele>
        <extensions>
          <visugpx:TrkExtension xmlns:visugpx="https://www.visugpx.com/editgpx/">
            <visugpx:node>16</visugpx:node>
            </visugpx:TrkExtension>
        </extensions>
      </trkpt>
      <trkpt lat="43.18696" lon="-1.35102">
        <ele>291.3</ele>
      </trkpt>
      <trkpt lat="43.18727" lon="-1.35116">
        <ele>295.2</ele>
      </trkpt>
      <trkpt lat="43.1875" lon="-1.35138">
        <ele>298.8</ele>
      </trkpt>
      <trkpt lat="43.18759" lon="-1.35141">
        <ele>301.3</ele>
      </trkpt>
      <trkpt lat="43.18768" lon="-1.35136">
        <ele>302.3</ele>
      </trkpt>
      <trkpt lat="43.18792" lon="-1.3509">
        <ele>301.3</ele>
      </trkpt>
      <trkpt lat="43.18829" lon="-1.35048">
        <ele>304.3</ele>
      </trkpt>
      <trkpt lat="43.18846" lon="-1.35036">
        <ele>304.6</ele>
      </trkpt>
      <trkpt lat="43.18855" lon="-1.35036">
        <ele>305.1</ele>
      </trkpt>
      <trkpt lat="43.18853" lon="-1.35128">
        <ele>325.8</ele>
      </trkpt>
      <trkpt lat="43.1885" lon="-1.35173">
        <ele>331.1</ele>
      </trkpt>
      <trkpt lat="43.18853" lon="-1.35187">
        <ele>334.1</ele>
      </trkpt>
      <trkpt lat="43.18844" lon="-1.35242">
        <ele>340</ele>
      </trkpt>
      <trkpt lat="43.18846" lon="-1.35285">
        <ele>347.4</ele>
        <extensions>
          <visugpx:TrkExtension xmlns:visugpx="https://www.visugpx.com/editgpx/">
            <visugpx:node>17</visugpx:node>
            </visugpx:TrkExtension>
        </extensions>
      </trkpt>
    </trkseg>
  </trk>
</gpx>